Hart Sprint Triathlon

400m Swim / 20km Bike / 5km Run

Monday 6th May 2013

Results by Galeforce Events

Finish Status Pos FirstName Race No Time Category Code Categ Pos Gender Club Swim Swim_PACE_FROMPREVLEG SwimOverallPos SwimCategPos SwimGenderPos T1 T1OverallPos T1CategPos T1GenderPos Cycle Cycle_PACE_FROMPREVLEG CycleOverallPos CycleCategPos CycleGenderPos T2 T2_PACE_FROMPREVLEG T2OverallPos T2CategPos T2GenderPos Run Run_PACE_FROMPREVLEG RunOverallPos RunCategPos RunGenderPos
Finished 1 Peter Campbell 2 00:55:37 M0 1 Male Portsmouth Tri 00:05:03 1:15 sec/100m 1 1 1 00:00:20 4 4 4 00:30:05 23.9 m/hr 3 2 2 00:00:27 0:08 min/m 1 1 1 00:19:41 6:21 min/m 2 2 2
Finished 2 Tom Robertson 10 00:56:59 M0 2 Male Pheonix Tri 00:06:02 1:30 sec/100m 11 6 8 00:00:24 12 5 9 00:30:42 23.4 m/hr 5 4 4 00:00:30 0:09 min/m 7 3 5 00:19:18 6:13 min/m 1 1 1
Finished 3 Adam Moore 471 00:58:04 M0 3 Male Fleet Tri 00:05:34 1:23 sec/100m 4 3 3 00:00:35 35 11 29 00:30:27 23.6 m/hr 4 3 3 00:00:39 0:12 min/m 28 9 20 00:20:47 6:42 min/m 5 4 5
Finished 4 Karl Chandler 22 00:59:09 M40 1 Male Farnham Tri 00:05:53 1:28 sec/100m 8 1 5 00:00:22 7 2 6 00:31:28 22.9 m/hr 9 2 8 00:00:33 0:10 min/m 12 1 8 00:21:05 6:48 min/m 6 1 6
Finished 5 Callum Hughes 463 00:59:19 M0 4 Male   00:05:56 1:29 sec/100m 10 5 7 00:00:39 48 14 39 00:32:01 22.5 m/hr 11 7 10 00:00:44 0:14 min/m 52 15 40 00:19:56 6:26 min/m 3 3 3
Finished 6 Richard Brooke 16 01:00:05 M40 2 Male Farnham Tri 00:06:12 1:33 sec/100m 17 3 14 00:00:20 5 1 5 00:31:05 23.2 m/hr 6 1 5 00:00:35 0:11 min/m 16 3 11 00:21:58 7:05 min/m 16 2 14
Finished 7 Rob Krijnen 13 01:00:06 M0 5 Male LOLLEPOTTERS TRI 00:06:20 1:35 sec/100m 20 11 16 00:00:31 26 8 22 00:29:37 24.3 m/hr 2 1 1 00:00:40 0:13 min/m 39 13 31 00:23:16 7:30 min/m 36 14 32
Finished 8 Ian White 8 01:00:45 M50 1 Male   00:07:00 1:45 sec/100m 63 3 54 00:00:27 15 1 12 00:31:22 23.0 m/hr 8 1 7 00:00:36 0:11 min/m 18 2 12 00:21:31 6:56 min/m 11 3 11
Finished 9 Ben Lewis 451 01:01:02 M0 6 Male London Triathlon Club 00:06:40 1:40 sec/100m 37 15 31 00:00:37 41 12 33 00:32:22 22.2 m/hr 13 9 12 00:00:28 0:09 min/m 2 2 2 00:21:41 6:59 min/m 13 6 12
Finished 10 Klaas Thibaut 12 01:01:22 M0 7 Male LOLLEPOTTERS TRI 00:06:59 1:44 sec/100m 59 21 50 00:00:25 14 7 11 00:31:17 23.0 m/hr 7 5 6 00:00:39 0:12 min/m 29 10 21 00:22:01 7:06 min/m 19 8 16
Finished 11 Tim Challinor 57 01:01:23 M35 1 Male Tri 20 00:06:46 1:41 sec/100m 41 6 34 00:00:32 27 5 23 00:32:36 22.1 m/hr 16 2 15 00:00:29 0:09 min/m 3 1 3 00:21:22 6:53 min/m 8 1 8
Finished 12 Andy Tomkins 467 01:01:51 M35 2 Male FLEEET TRI 00:06:26 1:36 sec/100m 25 3 21 00:00:24 11 2 8 00:32:31 22.1 m/hr 15 1 14 00:00:29 0:09 min/m 4 2 4 00:21:59 7:05 min/m 17 2 15
Finished 13 Paul Fitzpatrick 468 01:02:16 M35 3 Male Berkshire Tri Squad 00:05:47 1:26 sec/100m 6 1 4 00:00:48 74 15 61 00:32:45 22.0 m/hr 17 3 16 00:00:46 0:14 min/m 72 13 55 00:22:07 7:08 min/m 21 4 18
Finished 14 Wim Van Dijck 5 01:02:18 M0 8 Male LOLLEPOTTERS TRI 00:06:50 1:42 sec/100m 49 18 41 00:00:19 3 3 3 00:32:11 22.4 m/hr 12 8 11 00:00:40 0:12 min/m 36 11 28 00:22:17 7:11 min/m 26 12 22
Finished 15 Will Davidson 51 01:02:40 M0 9 Male VC Meudon 00:06:47 1:41 sec/100m 42 16 35 00:00:51 80 21 65 00:31:45 22.7 m/hr 10 6 9 00:01:05 0:21 min/m 195 44 146 00:22:11 7:09 min/m 25 11 21
Finished 16 Ben Watson 3 01:03:09 M0 10 Male Farnham Tri 00:06:06 1:31 sec/100m 15 9 12 00:00:16 1 1 1 00:34:25 20.9 m/hr 37 15 34 00:00:32 0:10 min/m 9 5 7 00:21:52 7:03 min/m 14 7 13
Finished 17 Nicholas Timmins 19 01:03:10 M0 11 Male Farnham Tri 00:06:06 1:31 sec/100m 13 7 10 00:00:18 2 2 2 00:34:05 21.1 m/hr 35 14 32 00:00:32 0:10 min/m 8 4 6 00:22:08 7:08 min/m 22 9 19
Finished 18 Louise Bardsley 34 01:03:12 F0 1 Female TVT 00:06:34 1:38 sec/100m 30 4 5 00:00:23 9 2 2 00:33:44 21.3 m/hr 31 2 3 00:00:51 0:16 min/m 103 9 21 00:21:40 6:59 min/m 12 1 1
Finished 19 Paul Manning 42 01:03:17 M0 12 Male Farnham Tri 00:06:49 1:42 sec/100m 44 17 37 00:00:42 54 15 43 00:32:47 22.0 m/hr 18 10 17 00:00:48 0:15 min/m 88 25 71 00:22:10 7:09 min/m 24 10 20
Finished 20 Anthony Lewis 469 01:03:33 M0 13 Male Jo`s Tri 00:06:36 1:39 sec/100m 34 14 29 00:00:55 95 25 75 00:34:28 20.9 m/hr 40 16 37 00:00:43 0:14 min/m 50 14 39 00:21:27 6:55 min/m 9 5 9
Finished 21 Lucy Chittenden 1 01:04:13 F0 2 Female EAST ST CYCLES 00:05:45 1:26 sec/100m 5 2 2 00:00:22 6 1 1 00:33:33 21.5 m/hr 29 1 2 00:00:29 0:09 min/m 5 1 1 00:24:02 7:45 min/m 61 3 7
Finished 22 Mark Wills 82 01:04:25 M35 4 Male Tri20 00:07:28 1:52 sec/100m 90 14 76 00:00:31 22 3 18 00:33:13 21.7 m/hr 22 5 21 00:00:39 0:12 min/m 32 7 24 00:23:11 7:28 min/m 34 8 30
Finished 23 Kirk Hobson 14 01:04:40 M40 3 Male Tri 20 00:06:03 1:30 sec/100m 12 2 9 00:00:27 16 3 13 00:34:03 21.1 m/hr 33 6 30 00:00:39 0:12 min/m 33 4 25 00:23:26 7:33 min/m 41 5 36
Finished 24 Nick Parris 457 01:04:51 M35 5 Male Tri 20 00:07:00 1:45 sec/100m 61 8 52 00:00:39 46 7 38 00:33:27 21.5 m/hr 26 7 25 00:00:38 0:12 min/m 25 4 17 00:23:06 7:27 min/m 32 7 28
Finished 25 Kris Laurijssens 255 01:04:57 M0 14 Male LOLLEPOTTERS TRI 00:07:12 1:48 sec/100m 76 26 64 00:00:38 42 13 34 00:32:48 21.9 m/hr 20 11 19 00:00:52 0:17 min/m 111 30 88 00:23:36 7:36 min/m 47 18 42
Finished 26 Darrell Robins 40 01:04:57 M50 2 Male TVT 00:06:50 1:42 sec/100m 48 2 40 00:00:38 43 3 35 00:33:33 21.5 m/hr 28 2 27 00:00:47 0:15 min/m 78 8 61 00:23:08 7:28 min/m 33 4 29
Finished 27 Alex Scott 26 01:05:05 M35 6 Male TVT 00:06:53 1:43 sec/100m 54 7 45 00:00:35 36 6 30 00:32:48 22.0 m/hr 19 4 18 00:00:43 0:14 min/m 49 11 38 00:24:04 7:46 min/m 64 12 56
Finished 28 Gary Kinrade 54 01:05:27 M45 1 Male Fleet Tri 00:06:35 1:38 sec/100m 31 3 26 00:00:36 38 4 32 00:33:14 21.7 m/hr 23 2 22 00:00:54 0:17 min/m 123 17 95 00:24:06 7:46 min/m 65 9 57
Finished 29 Ellen Gosling 70 01:05:42 F0 3 Female Tri 20 00:06:38 1:39 sec/100m 36 5 6 00:00:36 40 4 8 00:36:11 19.9 m/hr 91 3 9 00:00:30 0:09 min/m 6 2 2 00:21:55 7:04 min/m 15 2 2
Finished 30 Paul Williams 99 01:06:01 M45 2 Male SARMY TRI 00:08:00 2:00 sec/100m 154 24 122 00:00:44 58 8 47 00:32:25 22.2 m/hr 14 1 13 00:00:51 0:16 min/m 102 11 82 00:24:11 7:48 min/m 72 10 63
Finished 31 Gareth Anderson 64 01:06:07 M40 4 Male CATS 00:06:47 1:41 sec/100m 43 9 36 00:00:31 25 5 21 00:33:24 21.5 m/hr 24 3 23 00:00:41 0:13 min/m 44 5 36 00:24:56 8:02 min/m 93 14 82
Finished 32 Matt Pilgrim 71 01:06:14 M35 7 Male   00:07:50 1:57 sec/100m 131 20 104 00:01:15 170 24 130 00:33:39 21.4 m/hr 30 8 28 00:00:48 0:15 min/m 86 16 69 00:23:00 7:25 min/m 30 6 26
Finished 33 Stephen Mcgrown 76 01:06:21 M35 8 Male Farnham Tri 00:07:46 1:56 sec/100m 124 18 100 00:00:31 23 4 19 00:35:03 20.5 m/hr 59 11 56 00:00:40 0:12 min/m 35 8 27 00:22:19 7:12 min/m 27 5 23
Finished 34 Simon Vaughan 30 01:06:39 M0 15 Male Farnham Tri 00:07:41 1:55 sec/100m 115 34 93 00:00:25 13 6 10 00:34:04 21.1 m/hr 34 13 31 00:01:09 0:22 min/m 225 50 167 00:23:19 7:31 min/m 37 15 33
Finished 35 Mark Davidson 87 01:06:44 M40 5 Male Farnham Tri 00:06:38 1:39 sec/100m 35 6 30 00:00:52 84 9 67 00:33:32 21.5 m/hr 27 4 26 00:01:02 0:20 min/m 180 27 134 00:24:38 7:57 min/m 83 12 73
Finished 36 Richard Dunbabin 45 01:06:48 M55 1 Male Oxford Tri 00:06:59 1:44 sec/100m 60 3 51 00:00:27 17 1 14 00:34:28 20.9 m/hr 39 1 36 00:00:50 0:16 min/m 99 4 79 00:24:02 7:45 min/m 62 3 55
Finished 37 Mark Simms 172 01:06:51 M35 9 Male Oxford Tri 00:08:38 2:09 sec/100m 218 27 172 00:00:40 51 8 41 00:34:30 20.9 m/hr 42 9 39 00:00:55 0:17 min/m 132 20 100 00:22:06 7:07 min/m 20 3 17
Finished 38 Michael Billups 35 01:06:51 M50 3 Male Farnham Tri 00:06:25 1:36 sec/100m 24 1 20 00:00:39 45 4 37 00:35:13 20.4 m/hr 63 4 59 00:00:44 0:14 min/m 56 6 43 00:23:51 7:41 min/m 56 6 51
Finished 39 Andrew Fay 121 01:06:56 M55 2 Male Dorking & Mole 00:08:38 2:09 sec/100m 219 9 173 00:01:02 124 7 98 00:35:30 20.3 m/hr 71 5 67 00:00:44 0:14 min/m 58 1 44 00:21:13 6:50 min/m 7 1 7
Finished 40 Mark Richardson 9 01:07:12 M45 3 Male Farnham Tri 00:06:52 1:43 sec/100m 53 6 44 00:00:55 94 13 74 00:34:13 21.0 m/hr 36 3 33 00:00:39 0:12 min/m 30 1 22 00:24:30 7:54 min/m 82 14 72
Finished 41 Edwina Mc Dowell 88 01:07:30 F40 1 Female Tri20 00:08:00 2:00 sec/100m 151 6 32 00:00:33 31 1 5 00:36:01 20.0 m/hr 87 1 6 00:00:55 0:17 min/m 127 8 31 00:22:00 7:06 min/m 18 1 3
Finished 42 Johnathan Chadwick 123 01:07:38 M45 4 Male CATS 00:07:58 1:59 sec/100m 146 22 115 00:00:44 57 7 46 00:34:29 20.9 m/hr 41 4 38 00:00:40 0:12 min/m 34 2 26 00:23:46 7:40 min/m 53 5 48
Finished 43 Jan Boeckx 433 01:07:40 M0 16 Male LOLLEPOTTERS TRI 00:08:14 2:03 sec/100m 173 41 137 00:01:33 234 41 168 00:33:04 21.8 m/hr 21 12 20 00:01:23 0:27 min/m 293 58 215 00:23:25 7:33 min/m 39 16 34
Finished 44 Timothy Carmen 84 01:07:45 M40 6 Male Fleet Tri 00:07:09 1:47 sec/100m 71 12 60 00:01:39 246 32 177 00:35:19 20.4 m/hr 65 9 61 00:01:11 0:23 min/m 236 34 175 00:22:25 7:13 min/m 28 3 24
Finished 45 Jamie Rossiter 124 01:07:46 M45 5 Male TVT 00:07:20 1:50 sec/100m 82 9 68 00:00:39 44 5 36 00:35:24 20.3 m/hr 67 11 63 00:00:41 0:13 min/m 43 4 35 00:23:41 7:38 min/m 49 4 44
Finished 46 Bill Watson 67 01:07:53 M45 6 Male Reading RR 00:07:34 1:53 sec/100m 104 12 86 00:00:44 60 9 49 00:34:54 20.6 m/hr 54 9 51 00:01:10 0:22 min/m 229 31 170 00:23:29 7:34 min/m 42 2 37
Finished 47 Russell Hodgson 37 01:08:07 M35 10 Male   00:06:29 1:37 sec/100m 27 5 23 00:00:42 55 9 44 00:35:22 20.4 m/hr 66 13 62 00:00:46 0:15 min/m 77 14 60 00:24:45 7:59 min/m 87 14 76
Finished 48 Katie Stanley 7 01:08:08 F35 1 Female Farnham Tri 00:05:52 1:28 sec/100m 7 1 3 00:00:23 10 1 3 00:35:46 20.1 m/hr 78 2 5 00:00:38 0:12 min/m 24 1 8 00:25:36 8:15 min/m 120 5 15
Finished 49 Ian Freeman 55 01:08:16 M0 17 Male   00:07:00 1:45 sec/100m 62 22 53 00:00:47 70 18 58 00:34:35 20.8 m/hr 44 17 41 00:01:00 0:19 min/m 163 37 121 00:24:52 8:01 min/m 89 26 78
Finished 50 Geert Van De Heyning 464 01:08:17 M0 18 Male White Cliffs 00:06:25 1:36 sec/100m 23 12 19 00:00:55 92 23 72 00:34:57 20.6 m/hr 55 22 52 00:00:47 0:15 min/m 81 23 64 00:25:12 8:07 min/m 105 28 94
Finished 51 Charlotte Hanson 6 01:08:21 F0 4 Female FARNHAM RUNNERS 00:05:18 1:19 sec/100m 2 1 1 00:00:36 39 3 7 00:37:46 19.1 m/hr 133 5 14 00:00:36 0:11 min/m 20 5 7 00:24:03 7:45 min/m 63 4 8
Finished 52 Brendan Drummond 161 01:08:23 M35 11 Male TVT 00:08:42 2:10 sec/100m 230 30 179 00:01:09 150 20 115 00:33:26 21.5 m/hr 25 6 24 00:01:18 0:25 min/m 272 31 197 00:23:46 7:40 min/m 52 10 47
Finished 53 Tim Pearce 107 01:08:24 M35 12 Male Farnham Tri 00:07:10 1:47 sec/100m 72 11 61 00:00:46 64 11 53 00:35:40 20.2 m/hr 76 15 72 00:01:04 0:20 min/m 188 23 140 00:23:54 7:42 min/m 59 11 54
Finished 54 Steve Stroud 24 01:08:24 M35 13 Male Tri20 00:07:02 1:45 sec/100m 66 9 56 00:00:22 8 1 7 00:35:03 20.5 m/hr 58 10 55 00:00:42 0:13 min/m 45 10 37 00:25:13 8:08 min/m 106 18 95
Finished 55 Gregor Lock 470 01:08:24 M45 7 Male Fleet Tri 00:07:04 1:46 sec/100m 68 8 58 00:01:06 140 24 110 00:35:12 20.4 m/hr 62 10 58 00:00:46 0:15 min/m 75 7 58 00:24:14 7:49 min/m 75 11 66
Finished 56 Oliver Dunkley 166 01:08:26 M0 19 Male   00:08:31 2:07 sec/100m 210 48 167 00:00:33 33 10 28 00:34:43 20.7 m/hr 49 20 46 00:00:50 0:16 min/m 94 28 76 00:23:47 7:40 min/m 54 20 49
Finished 57 Spencer Jackson 458 01:08:28 M0 20 Male   00:08:19 2:04 sec/100m 192 47 153 00:01:14 167 36 127 00:34:50 20.7 m/hr 51 21 48 00:01:06 0:21 min/m 204 46 151 00:22:59 7:24 min/m 29 13 25
Finished 58 James Willott 17 01:08:32 M0 21 Male Farnham Tri 00:05:55 1:28 sec/100m 9 4 6 00:00:49 76 19 62 00:35:47 20.1 m/hr 80 26 75 00:01:01 0:19 min/m 175 40 130 00:24:57 8:03 min/m 95 27 84
Finished 59 Henry Gibbons 171 01:08:37 M0 22 Male   00:05:28 1:22 sec/100m 3 2 2 00:01:05 134 31 105 00:34:41 20.8 m/hr 48 19 45 00:01:05 0:21 min/m 193 43 144 00:26:16 8:28 min/m 144 34 124
Finished 60 Nick Steevens 190 01:08:40 M55 3 Male   00:07:24 1:51 sec/100m 85 4 71 00:01:17 174 11 134 00:35:30 20.3 m/hr 70 4 66 00:00:48 0:15 min/m 87 3 70 00:23:40 7:38 min/m 48 2 43
Finished 61 Sean Green 56 01:08:41 M45 8 Male TVT 00:07:39 1:54 sec/100m 111 15 91 00:00:45 62 10 51 00:35:48 20.1 m/hr 82 15 77 00:01:17 0:25 min/m 269 35 195 00:23:13 7:29 min/m 35 1 31
Finished 62 Tracy Cornell 242 01:08:41 F35 2 Female   00:07:32 1:53 sec/100m 98 3 15 00:01:24 204 8 54 00:35:11 20.5 m/hr 61 1 4 00:01:21 0:26 min/m 282 12 76 00:23:20 7:31 min/m 38 1 5
Finished 63 Ian Duncan 114 01:08:47 M45 9 Male Farnham Tri 00:07:49 1:57 sec/100m 130 19 103 00:00:31 24 2 20 00:35:33 20.3 m/hr 74 12 70 00:01:04 0:20 min/m 192 25 143 00:23:48 7:40 min/m 55 6 50
Finished 64 James Vann 204 01:08:55 M35 14 Male EVERSHAM VALE TRI 00:07:52 1:58 sec/100m 133 21 106 00:00:53 89 16 70 00:36:09 19.9 m/hr 90 17 82 00:00:40 0:13 min/m 38 9 30 00:23:33 7:36 min/m 44 9 39
Finished 65 Andrew Smith 36 01:08:56 M45 10 Male TVT 00:06:33 1:38 sec/100m 29 2 25 00:00:30 21 1 17 00:34:53 20.6 m/hr 52 7 49 00:00:54 0:17 min/m 120 16 94 00:26:12 8:27 min/m 139 25 121
Finished 66 Paul Newell 189 01:08:58 M50 4 Male CATS 00:09:04 2:16 sec/100m 262 27 203 00:00:57 104 6 83 00:36:49 19.6 m/hr 108 8 96 00:00:37 0:12 min/m 21 3 14 00:21:29 6:55 min/m 10 2 10
Finished 67 Andrea Sharpe 461 01:09:05 F35 3 Female TVT 00:06:42 1:40 sec/100m 39 2 7 00:00:52 86 3 17 00:36:36 19.7 m/hr 99 4 12 00:00:44 0:14 min/m 60 3 16 00:24:09 7:47 min/m 71 3 9
Finished 68 Gareth Parsons 47 01:09:06 M0 23 Male   00:07:02 1:45 sec/100m 67 24 57 00:00:55 93 24 73 00:35:17 20.4 m/hr 64 24 60 00:00:44 0:14 min/m 54 17 42 00:25:21 8:10 min/m 113 30 101
Finished 69 Ian Armstrong 228 01:09:31 M45 11 Male Tri 20 00:07:37 1:54 sec/100m 108 14 89 00:00:50 79 11 64 00:36:23 19.8 m/hr 93 18 83 00:00:46 0:14 min/m 68 6 51 00:23:53 7:42 min/m 58 8 53
Finished 70 Kelvin Spencer 90 01:09:32 M50 5 Male   00:07:17 1:49 sec/100m 81 4 67 00:01:06 139 8 109 00:36:37 19.7 m/hr 100 7 88 00:00:57 0:18 min/m 141 12 107 00:23:33 7:36 min/m 45 5 40
Finished 71 Paul Carter 158 01:09:32 M45 12 Male Portsmouth Tri 00:08:03 2:00 sec/100m 157 26 125 00:01:22 201 34 147 00:35:55 20.0 m/hr 86 17 81 00:01:11 0:22 min/m 231 32 172 00:23:31 7:35 min/m 43 3 38
Finished 72 Ted Hamilton 100 01:09:36 M60 1 Male Jo`s Tri 00:07:33 1:53 sec/100m 103 1 85 00:00:48 71 1 59 00:35:48 20.1 m/hr 81 1 76 00:01:05 0:21 min/m 198 2 148 00:24:21 7:51 min/m 78 1 69
Finished 73 Simon Fletcher 44 01:09:40 M40 7 Male Farnham Tri 00:06:44 1:41 sec/100m 40 8 33 00:00:33 32 6 27 00:37:21 19.3 m/hr 120 18 108 00:00:55 0:17 min/m 128 14 97 00:24:06 7:46 min/m 66 8 58
Finished 74 Martin Hopwood 59 01:09:55 M55 4 Male Farnham Tri 00:06:51 1:42 sec/100m 51 1 42 00:00:44 59 4 48 00:35:30 20.3 m/hr 69 3 65 00:00:57 0:18 min/m 148 6 113 00:25:50 8:20 min/m 127 6 111
Finished 75 Gareth Moores 232 01:10:03 M40 8 Male Fleet Tri 00:07:59 1:59 sec/100m 150 21 119 00:00:53 88 10 69 00:36:28 19.7 m/hr 97 11 86 00:01:00 0:19 min/m 164 22 122 00:23:41 7:38 min/m 50 7 45
Finished 76 Neil Daly 150 01:10:05 M40 9 Male Farnham Tri 00:08:53 2:13 sec/100m 244 32 186 00:01:29 222 29 161 00:33:48 21.3 m/hr 32 5 29 00:00:59 0:19 min/m 160 21 118 00:24:54 8:02 min/m 91 13 80
Finished 77 Becky Crisp 151 01:10:05 F35 4 Female BASINGSTOKE & MID HANTS 00:07:44 1:56 sec/100m 120 6 23 00:01:02 120 4 25 00:36:20 19.8 m/hr 92 3 10 00:00:58 0:18 min/m 152 6 38 00:24:00 7:44 min/m 60 2 6
Finished 78 Shaun Sutehall 15 01:10:07 M40 10 Male Petersfield Tri 00:06:23 1:35 sec/100m 21 4 17 00:00:28 18 4 15 00:36:56 19.5 m/hr 110 15 98 00:00:46 0:15 min/m 74 8 57 00:26:24 8:31 min/m 148 26 128
Finished 79 Hemmie Stapelberg 476 01:10:09 M45 13 Male   00:08:15 2:03 sec/100m 178 31 142 00:01:10 152 26 117 00:34:53 20.6 m/hr 53 8 50 00:01:20 0:26 min/m 278 38 201 00:24:28 7:53 min/m 80 13 71
Finished 80 John Phillips 144 01:10:14 M45 14 Male Dorking & Mole 00:07:41 1:55 sec/100m 116 16 94 00:00:52 83 12 66 00:34:41 20.8 m/hr 47 6 44 00:01:11 0:23 min/m 233 33 173 00:25:47 8:19 min/m 125 23 110
Finished 81 Jan Scott 66 01:10:25 F45 1 Female   00:06:49 1:42 sec/100m 46 1 8 00:00:30 20 1 4 00:37:41 19.1 m/hr 132 2 13 00:00:53 0:17 min/m 114 2 24 00:24:30 7:54 min/m 81 1 10
Finished 82 Iain Wheatley 188 01:10:33 M40 11 Male Farnham Tri 00:07:59 1:59 sec/100m 149 20 118 00:01:27 213 26 155 00:35:32 20.3 m/hr 72 10 68 00:01:07 0:21 min/m 210 29 156 00:24:26 7:53 min/m 79 11 70
Finished 83 Joshua Knight 119 01:10:36 M0 24 Male   00:07:13 1:48 sec/100m 77 27 65 00:00:57 102 26 81 00:38:03 18.9 m/hr 142 34 128 00:00:45 0:14 min/m 65 20 49 00:23:42 7:38 min/m 51 19 46
Finished 84 Colin Surgeon 53 01:10:41 M45 15 Male Berks Tri 00:07:28 1:52 sec/100m 91 11 77 00:00:32 30 3 26 00:35:37 20.2 m/hr 75 13 71 00:01:02 0:19 min/m 177 23 132 00:26:00 8:23 min/m 134 24 116
Finished 85 Philip Rose 229 01:10:43 M40 12 Male CATS 00:08:06 2:01 sec/100m 162 24 129 00:01:15 171 20 131 00:37:27 19.2 m/hr 127 21 115 00:00:57 0:18 min/m 146 17 111 00:23:05 7:26 min/m 31 4 27
Finished 86 Charlie Pughe 279 01:10:44 M0 25 Male CATS 00:08:07 2:01 sec/100m 163 39 130 00:00:58 106 27 85 00:36:47 19.6 m/hr 106 28 94 00:00:45 0:14 min/m 61 18 45 00:24:07 7:46 min/m 67 21 59
Finished 87 Martin Halley 165 01:10:48 M45 16 Male   00:09:10 2:17 sec/100m 266 46 206 00:01:04 130 23 103 00:35:46 20.1 m/hr 79 14 74 00:01:06 0:21 min/m 207 28 154 00:23:53 7:42 min/m 57 7 52
Finished 88 Adrian Turner 101 01:10:51 M40 13 Male   00:08:23 2:05 sec/100m 200 30 159 00:01:27 215 28 157 00:34:25 20.9 m/hr 38 7 35 00:01:12 0:23 min/m 237 35 176 00:25:42 8:17 min/m 122 20 107
Finished 89 Philip Crouch 112 01:10:55 M55 5 Male   00:07:58 1:59 sec/100m 148 6 117 00:00:32 29 2 25 00:34:44 20.7 m/hr 50 2 47 00:00:47 0:15 min/m 85 2 68 00:26:51 8:39 min/m 164 8 140
Finished 90 Tom Marks 49 01:11:08 M45 17 Male Hart SC 00:06:35 1:38 sec/100m 32 4 27 00:01:02 126 22 99 00:37:21 19.3 m/hr 119 22 107 00:00:49 0:15 min/m 90 8 73 00:25:19 8:10 min/m 110 20 98
Finished 91 Chris Cullen 38 01:11:28 M40 14 Male   00:06:40 1:40 sec/100m 38 7 32 00:01:00 116 12 92 00:37:20 19.3 m/hr 117 17 105 00:01:14 0:24 min/m 253 39 186 00:25:12 8:07 min/m 103 18 92
Finished 92 Tim Pegg 160 01:11:45 M50 6 Male   00:09:18 2:19 sec/100m 274 28 214 00:01:21 195 15 143 00:34:37 20.8 m/hr 45 3 42 00:01:07 0:21 min/m 212 16 157 00:25:19 8:10 min/m 112 8 100
Finished 93 Andy Macey 266 01:11:52 M40 15 Male Fleet Tri 00:07:32 1:53 sec/100m 100 16 84 00:01:26 212 25 154 00:36:48 19.6 m/hr 107 13 95 00:00:56 0:18 min/m 138 16 104 00:25:07 8:06 min/m 100 17 89
Finished 94 Paul Graham 118 01:11:57 M0 26 Male   00:07:28 1:52 sec/100m 92 31 78 00:00:50 77 20 63 00:37:20 19.3 m/hr 118 30 106 00:01:01 0:19 min/m 172 39 128 00:25:16 8:09 min/m 108 29 97
Finished 95 Mel Brookes 61 01:12:00 F40 2 Female   00:06:51 1:42 sec/100m 50 1 9 00:01:10 154 7 36 00:41:12 17.5 m/hr 241 7 38 00:00:36 0:11 min/m 17 2 6 00:22:09 7:08 min/m 23 2 4
Finished 96 Jason Brown 450 01:12:00 M0 27 Male palmer park velo 00:09:18 2:19 sec/100m 273 53 213 00:01:47 270 46 194 00:34:39 20.8 m/hr 46 18 43 00:00:55 0:17 min/m 130 32 99 00:25:35 8:15 min/m 119 32 105
Finished 97 Simon Bond 85 01:12:04 M45 18 Male Basingstoke Tri 00:07:36 1:54 sec/100m 105 13 87 00:00:56 98 15 77 00:37:37 19.1 m/hr 130 26 118 00:00:52 0:16 min/m 108 13 85 00:25:02 8:04 min/m 98 17 87
Finished 98 Dave Jolliffe 444 01:12:06 M40 16 Male   00:07:45 1:56 sec/100m 121 18 98 00:02:26 340 48 243 00:37:21 19.3 m/hr 122 19 110 00:00:46 0:15 min/m 76 9 59 00:24:11 7:48 min/m 73 10 64
Finished 99 Julia Hodkinson 80 01:12:06 F50 1 Female HERKS TRI 00:08:20 2:05 sec/100m 194 6 40 00:00:48 72 3 12 00:36:01 20.0 m/hr 88 1 7 00:00:43 0:14 min/m 48 2 11 00:26:12 8:27 min/m 140 2 19
Finished 100 Alistair Wier 58 01:12:10 M50 7 Male TVT 00:07:30 1:52 sec/100m 95 7 81 00:00:29 19 2 16 00:35:50 20.1 m/hr 83 5 78 00:00:47 0:15 min/m 79 9 62 00:27:33 8:53 min/m 184 16 154
Finished 101 James Whelan 456 01:12:27 M35 15 Male Ftc 00:08:14 2:03 sec/100m 174 24 138 00:01:11 155 21 118 00:36:45 19.6 m/hr 103 18 91 00:01:08 0:21 min/m 214 26 159 00:25:09 8:06 min/m 101 16 90
Finished 102 Josh Jenkins 94 01:12:28 M0 28 Male   00:07:24 1:51 sec/100m 87 28 73 00:01:19 181 38 136 00:36:45 19.6 m/hr 105 27 93 00:01:23 0:26 min/m 290 56 212 00:25:44 8:18 min/m 124 33 109
Finished 103 Patrick Kevelaerts 321 01:12:28 M0 29 Male LOLLEPOTTERS TRI 00:07:56 1:59 sec/100m 140 36 110 00:00:52 85 22 68 00:37:49 19.0 m/hr 136 32 122 00:01:09 0:22 min/m 222 48 165 00:24:40 7:57 min/m 84 24 74
Finished 104 David Bingham 102 01:12:29 M40 17 Male   00:07:14 1:48 sec/100m 78 14 66 00:01:27 214 27 156 00:36:44 19.6 m/hr 101 12 89 00:01:31 0:29 min/m 326 49 236 00:25:32 8:14 min/m 115 19 102
Finished 105 Tony Bailey 75 01:12:32 M35 16 Male TVT 00:07:52 1:58 sec/100m 135 22 107 00:00:46 66 12 55 00:38:14 18.8 m/hr 149 24 132 00:00:45 0:14 min/m 63 12 47 00:24:52 8:01 min/m 90 15 79
Finished 106 Steve Wallace 143 01:12:43 M45 19 Male Farnham Tri 00:08:55 2:13 sec/100m 247 40 189 00:00:56 99 16 78 00:36:45 19.6 m/hr 104 21 92 00:00:51 0:16 min/m 106 12 83 00:25:14 8:08 min/m 107 19 96
Finished 107 Tom Pimm 29 01:12:48 M35 17 Male Berks Tri 00:06:24 1:36 sec/100m 22 2 18 00:00:47 69 14 57 00:35:25 20.3 m/hr 68 14 64 00:00:52 0:16 min/m 107 17 84 00:29:18 9:27 min/m 253 34 203
Finished 108 Matthew Berry 39 01:12:49 M40 18 Male   00:06:30 1:37 sec/100m 28 5 24 00:01:02 121 14 95 00:38:19 18.8 m/hr 152 27 135 00:01:13 0:23 min/m 241 36 179 00:25:43 8:18 min/m 123 21 108
Finished 109 Darren Lynch 116 01:12:51 M0 30 Male TVT 00:07:26 1:51 sec/100m 88 29 74 00:00:46 63 17 52 00:39:16 18.3 m/hr 181 37 159 00:00:49 0:15 min/m 91 27 74 00:24:44 7:58 min/m 85 25 75
Finished 110 Thomas Bennetts 130 01:12:53 M35 18 Male   00:08:40 2:10 sec/100m 223 29 176 00:01:42 256 30 184 00:37:21 19.3 m/hr 121 21 109 00:00:52 0:17 min/m 112 18 89 00:24:15 7:49 min/m 76 13 67
Finished 111 Thomas Southall 147 01:12:54 M0 31 Male   00:08:17 2:04 sec/100m 186 45 149 00:01:21 193 39 142 00:39:38 18.2 m/hr 192 39 167 00:00:45 0:14 min/m 66 21 50 00:23:26 7:33 min/m 40 17 35
Finished 112 Simon Berry 4 01:12:54 M0 32 Male   00:06:06 1:31 sec/100m 14 8 11 00:00:58 110 28 88 00:37:24 19.3 m/hr 126 31 114 00:00:46 0:14 min/m 71 22 54 00:27:39 8:55 min/m 186 41 156
Finished 113 Martin Long 113 01:13:05 M55 6 Male   00:08:02 2:00 sec/100m 155 7 123 00:01:00 114 6 91 00:38:22 18.8 m/hr 154 9 137 00:00:57 0:18 min/m 143 5 109 00:24:49 8:00 min/m 88 4 77
Finished 114 Alan Kirby 280 01:13:10 M55 7 Male Sandhurst Joggers 00:08:41 2:10 sec/100m 226 10 177 00:01:13 161 10 123 00:35:45 20.1 m/hr 77 6 73 00:02:24 0:46 min/m 402 19 291 00:25:05 8:05 min/m 99 5 88
Finished 115 Simon Reed 214 01:13:20 M40 19 Male FLEET & CROOKHAM                   00:38:02 18.9 m/hr 141 25 127 00:01:02 0:19 min/m 176 25 131 00:24:09 7:47 min/m 70 9 62
Finished 116 Bruce Korican 92 01:13:26 M45 20 Male Farnham Tri 00:06:50 1:42 sec/100m 47 5 39 00:00:40 52 6 42 00:34:31 20.9 m/hr 43 5 40 00:00:56 0:18 min/m 137 19 103 00:30:27 9:49 min/m 279 47 221
Finished 117 Steve March 135 01:13:32 M50 8 Male Fleet Tri 00:07:56 1:59 sec/100m 139 8 109 00:01:26 210 17 152 00:38:58 18.5 m/hr 173 16 152 00:01:04 0:20 min/m 187 15 139 00:24:08 7:47 min/m 69 7 61
Finished 118 Morag Mcdowall 125 01:13:33 F40 3 Female Fleet Tri 00:07:33 1:53 sec/100m 102 4 18 00:00:33 34 2 6 00:38:04 18.9 m/hr 144 2 16 00:00:35 0:11 min/m 15 1 5 00:26:45 8:37 min/m 161 4 24
Finished 119 Jason Twigg 257 01:13:36 M35 19 Male Fleet Tri 00:08:23 2:05 sec/100m 202 26 160 00:00:45 61 10 50 00:37:20 19.3 m/hr 116 20 104 00:00:36 0:11 min/m 19 3 13 00:26:31 8:33 min/m 150 25 129
Finished 120 Matthew Fox 260 01:13:41 M35 20 Male   00:09:11 2:17 sec/100m 267 33 207 00:01:13 164 22 125 00:35:55 20.0 m/hr 85 16 80 00:01:21 0:26 min/m 284 32 206 00:25:59 8:22 min/m 131 20 113
Finished 121 Noel Coloe 133 01:13:55 M50 9 Male   00:08:49 2:12 sec/100m 239 21 182 00:04:05 402 36 291 00:38:09 18.9 m/hr 146 12 129 00:02:40 0:51 min/m 405 36 293 00:20:12 6:30 min/m 4 1 4
Finished 122 Mark Somerset 132 01:13:58 M0 33 Male   00:07:11 1:47 sec/100m 73 25 62 00:01:39 243 43 174 00:37:09 19.4 m/hr 113 29 101 00:00:55 0:17 min/m 126 31 96 00:27:03 8:43 min/m 173 38 148
Finished 123 Johnathan Porter 146 01:14:05 M45 21 Male Farnham Tri 00:08:10 2:02 sec/100m 169 29 135 00:00:57 100 17 79 00:38:51 18.5 m/hr 168 32 150 00:00:55 0:17 min/m 133 18 101 00:25:10 8:07 min/m 102 18 91
Finished 124 Ken Jamieson 272 01:14:11 M35 21 Male   00:09:55 2:28 sec/100m 318 38 243 00:00:47 67 13 56 00:37:15 19.3 m/hr 114 19 102 00:00:39 0:12 min/m 31 6 23 00:25:34 8:15 min/m 117 19 103
Finished 125 Ben Meakings 429 01:14:12 M0 34 Male   00:08:17 2:04 sec/100m 185 44 148 00:01:06 138 32 108 00:35:33 20.3 m/hr 73 25 69 00:01:16 0:24 min/m 262 54 190 00:28:07 9:04 min/m 207 46 170
Finished 126 John Hayes 288 01:14:14 M50 10 Male   00:08:49 2:12 sec/100m 240 22 183 00:01:19 182 13 137 00:36:24 19.8 m/hr 94 6 84 00:00:46 0:14 min/m 70 7 53 00:26:55 8:41 min/m 166 15 142
Finished 127 Edmund Ceurstemost 177 01:14:17 M35 22 Male   00:07:48 1:57 sec/100m 129 19 102 00:01:14 166 23 126 00:35:07 20.5 m/hr 60 12 57 00:01:24 0:27 min/m 297 35 217 00:28:59 9:21 min/m 240 32 195
Finished 128 Gareth Bulley 465 01:14:19 M0 35 Male   00:07:26 1:51 sec/100m 89 30 75 00:01:33 235 42 169 00:39:53 18.1 m/hr 201 41 175 00:01:14 0:23 min/m 247 53 183 00:24:12 7:48 min/m 74 23 65
Finished 129 Nicholas Brown 375 01:14:22 M50 11 Male CATS 00:09:01 2:15 sec/100m 258 26 200 00:01:02 123 7 97 00:37:09 19.4 m/hr 112 9 100 00:00:52 0:16 min/m 109 11 86 00:26:16 8:28 min/m 145 10 125
Finished 130 Nick Reeve 31 01:14:23 M35 23 Male   00:06:28 1:37 sec/100m 26 4 22 00:00:58 109 19 87 00:40:47 17.6 m/hr 231 33 198 00:00:56 0:18 min/m 140 21 106 00:25:12 8:07 min/m 104 17 93
Finished 131 Matthew Hoile 27 01:14:25 M0 36 Male HANTS FIRE & RESCUE 00:06:59 1:44 sec/100m 58 20 49 00:00:32 28 9 24 00:39:02 18.4 m/hr 175 35 154 00:00:50 0:16 min/m 100 29 80 00:27:00 8:42 min/m 170 37 145
Finished 132 Darren Ord 277 01:14:28 M40 20 Male HANTS POLICE 00:08:22 2:05 sec/100m 199 29 158 00:01:05 135 17 106 00:35:03 20.5 m/hr 56 8 53 00:01:17 0:24 min/m 268 42 194 00:28:39 9:14 min/m 235 34 190
Finished 133 Shaun Glover 322 01:14:30 M40 21 Male CATS 00:08:04 2:01 sec/100m 159 22 126 00:00:46 65 8 54 00:38:49 18.5 m/hr 165 30 147 00:00:35 0:11 min/m 13 2 9 00:26:17 8:28 min/m 146 25 126
Finished 134 Andy Fuller 449 01:14:39 M40 22 Male   00:08:04 2:01 sec/100m 160 23 127 00:02:15 324 44 232 00:37:32 19.2 m/hr 129 22 117 00:01:46 0:34 min/m 368 55 265 00:25:00 8:04 min/m 97 16 86
Finished 135 Jonathan Thorn 156 01:14:51 M35 24 Male   00:07:45 1:56 sec/100m 122 17 99 00:01:42 255 29 183 00:38:18 18.8 m/hr 151 26 134 00:01:13 0:23 min/m 246 28 182 00:26:12 8:27 min/m 141 24 122
Finished 136 Andrew Madden 175 01:14:53 M35 25 Male   00:07:36 1:54 sec/100m 107 15 88 00:00:57 101 18 80 00:39:04 18.4 m/hr 177 29 156 00:01:14 0:23 min/m 248 29 184 00:26:01 8:23 min/m 135 22 117
Finished 137 Rob Fisher 435 01:15:09 M40 23 Male HSC 00:07:12 1:48 sec/100m 75 13 63 00:01:47 268 35 192 00:39:17 18.3 m/hr 182 33 160 00:01:09 0:22 min/m 220 31 163 00:26:13 8:27 min/m 142 24 123
Finished 138 Mark Wallis 136 01:15:24 M45 22 Male Fleet Tri 00:08:02 2:00 sec/100m 156 25 124 00:01:01 118 21 94 00:36:32 19.7 m/hr 98 20 87 00:01:05 0:21 min/m 199 26 149 00:28:42 9:15 min/m 236 39 191
Finished 139 Michelle Gautier 173 01:15:30 F0 5 Female Oxford Tri 00:08:45 2:11 sec/100m 231 16 52 00:00:50 78 6 14 00:36:26 19.8 m/hr 95 4 11 00:01:20 0:25 min/m 276 21 75 00:28:08 9:04 min/m 209 10 38
Finished 140 Nicole Johnson 137 01:15:31 F50 2 Female Southampton Tri 00:07:57 1:59 sec/100m 142 4 31 00:01:01 119 4 24 00:38:05 18.9 m/hr 145 2 17 00:00:53 0:17 min/m 118 6 25 00:27:49 8:58 min/m 193 3 32
Finished 141 Justin Williamson 233 01:15:32 M0 37 Male Tri 20 00:08:19 2:04 sec/100m 190 46 151 00:01:05 131 30 104 00:37:50 19.0 m/hr 137 33 123 00:01:40 0:32 min/m 345 63 250 00:26:37 8:35 min/m 154 36 132
Finished 142 Jo Lewis 68 01:15:32 F55 1 Female Jo`s Tri 00:07:40 1:55 sec/100m 114 2 22 00:00:58 107 1 21 00:38:54 18.5 m/hr 169 1 19 00:00:51 0:16 min/m 104 1 22 00:27:07 8:45 min/m 175 2 26
Finished 143 Colin Wilson 110 01:15:35 M40 24 Male Tri 20 00:07:38 1:54 sec/100m 109 17 90 00:00:36 37 7 31 00:38:57 18.5 m/hr 172 31 151 00:01:23 0:26 min/m 292 45 214 00:26:59 8:42 min/m 169 30 144
Finished 144 Ian Sullivan 240 01:15:36 M40 25 Male   00:08:59 2:14 sec/100m 254 34 196 00:01:15 169 19 129 00:36:59 19.5 m/hr 111 16 99 00:01:31 0:29 min/m 327 50 237 00:26:51 8:39 min/m 163 29 139
Finished 145 Guillermo Leon-Ayarz 142 01:15:37 M45 23 Male   00:08:09 2:02 sec/100m 166 28 133 00:00:58 108 19 86 00:39:12 18.4 m/hr 179 33 157 00:00:53 0:17 min/m 115 15 91 00:26:34 8:34 min/m 151 26 130
Finished 146 Ivan Taylor 440 01:15:43 M45 24 Male   00:07:24 1:51 sec/100m 86 10 72 00:00:57 103 18 82 00:35:52 20.1 m/hr 84 16 79 00:01:21 0:26 min/m 281 39 204 00:30:07 9:43 min/m 274 45 216
Finished 147 Mark Norsworthy 63 01:15:52 M50 12 Male Farnham Tri 00:07:30 1:52 sec/100m 94 6 80 00:00:48 73 5 60 00:40:08 17.9 m/hr 212 20 182 00:00:41 0:13 min/m 41 5 33 00:26:44 8:37 min/m 159 13 136
Finished 148 Robin Langdon 292 01:15:54 M40 26 Male   00:09:39 2:24 sec/100m 298 48 231 00:01:10 151 18 116 00:37:48 19.0 m/hr 135 24 121 00:01:22 0:26 min/m 287 44 209 00:25:53 8:21 min/m 128 22 112
Finished 149 Lauren Norton 466 01:15:54 F0 6 Female   00:09:03 2:15 sec/100m 261 17 59 00:01:40 249 17 68 00:38:34 18.7 m/hr 159 6 18 00:00:42 0:13 min/m 46 6 9 00:25:54 8:21 min/m 129 6 17
Finished 150 Chris Bunce 269 01:15:57 M50 13 Male   00:08:50 2:12 sec/100m 243 24 185 00:01:13 163 12 124 00:38:35 18.7 m/hr 161 14 143 00:01:26 0:27 min/m 302 22 222 00:25:59 8:23 min/m 132 9 114
Finished 151 Chris Andrews 346 01:15:58 M40 27 Male CMA TRI 00:09:13 2:18 sec/100m 269 39 209 00:01:03 127 15 100 00:36:53 19.5 m/hr 109 14 97 00:01:37 0:31 min/m 339 51 246 00:27:11 8:46 min/m 176 32 150
Finished 152 Tom Payne 459 01:16:07 M35 26 Male Fleet Tri 00:07:04 1:46 sec/100m 69 10 59 00:01:52 286 33 204 00:38:17 18.8 m/hr 150 25 133 00:01:06 0:21 min/m 203 25 150 00:27:46 8:57 min/m 189 28 159
Finished 153 Vivienne Pountney 182 01:16:13 F55 2 Female   00:08:35 2:08 sec/100m 216 3 45 00:00:59 112 2 22 00:38:56 18.5 m/hr 171 2 21 00:01:07 0:21 min/m 211 5 53 00:26:34 8:34 min/m 152 1 22
Finished 154 Calum Cousins 428 01:16:16 M0 38 Male   00:11:08 2:47 sec/100m 366 67 270 00:01:16 173 37 133 00:35:03 20.5 m/hr 57 23 54 00:01:09 0:22 min/m 221 47 164 00:27:39 8:55 min/m 185 40 155
Finished 155 David Bennett 220 01:16:18 M45 25 Male TVT 00:07:55 1:58 sec/100m 138 20 108 00:01:50 282 42 201 00:37:22 19.3 m/hr 123 23 111 00:01:00 0:19 min/m 166 21 123 00:28:08 9:04 min/m 208 32 171
Finished 156 Nick Midworth 320 01:16:18 M0 39 Male   00:09:09 2:17 sec/100m 265 50 205 00:01:54 292 48 208 00:40:17 17.9 m/hr 213 42 183 00:00:48 0:15 min/m 89 26 72 00:24:07 7:46 min/m 68 22 60
Finished 157 Geoff Newman 296 01:16:21 M55 8 Male Fleet Tri 00:11:18 2:49 sec/100m 372 16 273 00:01:04 129 8 102 00:36:44 19.6 m/hr 102 7 90 00:01:07 0:21 min/m 208 10 155 00:26:07 8:25 min/m 137 7 119
Finished 158 Malcolm Watson 168 01:16:22 M45 26 Male Farnham Tri 00:09:38 2:24 sec/100m 295 50 229 00:01:44 262 40 189 00:39:26 18.3 m/hr 184 34 162 00:01:06 0:21 min/m 205 27 152 00:24:56 8:02 min/m 92 15 81
Finished 159 Stephen Futler 432 01:16:25 M45 27 Male Berks Tri 00:08:45 2:11 sec/100m 232 39 180 00:02:00 306 47 219 00:39:39 18.2 m/hr 193 35 168 00:01:15 0:24 min/m 257 34 187 00:25:19 8:10 min/m 111 21 99
Finished 160 Kathryn Rossiter 105 01:16:26 F45 2 Female TVT 00:07:32 1:53 sec/100m 99 2 16 00:00:42 53 2 10 00:36:03 20.0 m/hr 89 1 8 00:00:57 0:18 min/m 144 5 35 00:31:16 10:05 min/m 295 8 63
Finished 161 Heather Martin 473 01:16:26 F45 3 Female Berkshire Tri Squad 00:08:40 2:10 sec/100m 225 5 49 00:01:02 125 3 26 00:38:04 18.9 m/hr 143 3 15 00:00:55 0:17 min/m 135 4 34 00:27:46 8:57 min/m 191 3 31
Finished 162 Alistair Bridgman 437 01:16:31 M40 28 Male   00:09:32 2:23 sec/100m 289 45 225 00:02:16 330 46 237 00:40:21 17.8 m/hr 215 40 185 00:00:46 0:14 min/m 69 6 52 00:23:34 7:36 min/m 46 6 41
Finished 163 Siobhan Mcculloch 472 01:16:33 F0 7 Female Fleet Tri 00:08:23 2:05 sec/100m 201 14 42 00:00:53 87 7 18 00:41:21 17.4 m/hr 243 11 39 00:01:15 0:24 min/m 255 16 67 00:24:45 7:59 min/m 86 5 11
Finished 164 Steve Roberts 97 01:16:40 M45 28 Male   00:08:22 2:05 sec/100m 198 35 157 00:02:13 321 49 230 00:36:27 19.7 m/hr 96 19 85 00:01:24 0:27 min/m 298 42 218 00:28:12 9:05 min/m 212 33 173
Finished 165 Robert Docker 475 01:16:41 M35 27 Male   00:08:15 2:03 sec/100m 179 25 143 00:01:30 227 26 165 00:39:46 18.1 m/hr 197 30 172 00:01:08 0:22 min/m 216 27 161 00:25:59 8:23 min/m 133 21 115
Finished 166 Matt Bingham 89 01:17:04 M35 28 Male   00:07:44 1:56 sec/100m 119 16 97 00:01:21 198 25 145 00:38:32 18.7 m/hr 157 28 140 00:00:59 0:19 min/m 162 22 120 00:28:25 9:10 min/m 222 30 182
Finished 167 Carlton Greener 79 01:17:04 M45 29 Male   00:06:57 1:44 sec/100m 57 7 48 00:01:17 178 30 135 00:41:14 17.5 m/hr 242 42 204 00:01:10 0:22 min/m 226 30 168 00:27:04 8:43 min/m 174 30 149
Finished 168 Amy Breakell 439 01:17:04 F35 5 Female   00:09:45 2:26 sec/100m 308 12 72 00:01:32 233 10 64 00:39:29 18.2 m/hr 186 5 24 00:00:44 0:14 min/m 57 2 14 00:25:32 8:14 min/m 116 4 14
Finished 169 Paul Berry 311 01:17:15 M40 29 Male   00:09:01 2:15 sec/100m 259 37 201 00:02:00 302 41 215 00:38:34 18.7 m/hr 160 29 142 00:01:01 0:19 min/m 170 23 126 00:26:38 8:35 min/m 155 27 133
Finished 170 Ian Knight 145 01:17:18 M50 14 Male   00:08:17 2:04 sec/100m 184 11 147 00:01:09 146 9 114 00:38:33 18.7 m/hr 158 13 141 00:01:20 0:26 min/m 279 20 202 00:27:58 9:01 min/m 197 18 162
Finished 171 Wayne Jones 222 01:17:18 M45 30 Male TVT 00:08:06 2:01 sec/100m 161 27 128 00:01:16 172 29 132 00:38:50 18.5 m/hr 167 31 149 00:00:51 0:16 min/m 101 10 81 00:28:16 9:07 min/m 215 34 176
Finished 172 William Pimm 33 01:17:21 M0 40 Male Berks Tri 00:06:18 1:34 sec/100m 19 10 15 00:00:43 56 16 45 00:40:50 17.6 m/hr 232 45 199 00:01:03 0:20 min/m 182 41 135 00:29:06 9:23 min/m 243 52 197
Finished 173 Michael Anderson 226 01:17:29 M50 15 Male   00:07:29 1:52 sec/100m 93 5 79 00:01:29 226 19 164 00:37:56 19.0 m/hr 139 10 125 00:02:12 0:42 min/m 394 34 285 00:28:21 9:08 min/m 219 20 179
Finished 174 Andrew Heaton 230 01:17:31 M45 31 Male Nuffield 00:08:15 2:03 sec/100m 177 30 141 00:01:39 245 38 176 00:37:23 19.3 m/hr 125 24 113 00:01:46 0:34 min/m 370 53 267 00:28:27 9:10 min/m 225 37 185
Finished 175 Neil Tolfrey 180 01:17:36 M45 32 Male Portsmouth Tri 00:08:20 2:05 sec/100m 193 33 154 00:01:11 157 27 119 00:42:03 17.1 m/hr 271 49 224 00:01:44 0:33 min/m 363 51 261 00:24:16 7:49 min/m 77 12 68
Finished 176 Helene Rossiter 65 01:17:44 F0 8 Female Fleet Tri 00:07:17 1:49 sec/100m 80 7 14 00:00:55 97 9 20 00:39:10 18.4 m/hr 178 7 22 00:00:49 0:15 min/m 92 8 18 00:29:31 9:31 min/m 258 14 52
Finished 177 David Lennon 306 01:18:00 M45 33 Male Tri 20 00:08:56 2:14 sec/100m 251 42 193 00:01:06 141 25 111 00:41:26 17.4 m/hr 248 44 207 00:01:32 0:29 min/m 330 45 239 00:24:57 8:03 min/m 94 16 83
Finished 178 Gemma Mitchell 167 01:18:07 F40 4 Female   00:08:11 2:02 sec/100m 170 7 35 00:01:07 142 6 30 00:39:35 18.2 m/hr 191 3 25 00:01:13 0:23 min/m 242 16 61 00:28:00 9:02 min/m 201 9 36
Finished 179 Matthew Pickett 294 01:18:11 M0 41 Male Pheonix Tri 00:08:14 2:03 sec/100m 175 42 139 00:02:51 365 59 263 00:39:33 18.2 m/hr 188 38 164 00:01:55 0:37 min/m 379 66 274 00:25:35 8:15 min/m 118 31 104
Finished 180 Cindy Goslar 474 01:18:16 F40 5 Female Jo`s Tri 00:08:49 2:12 sec/100m 241 13 58 00:00:52 82 3 16 00:41:09 17.5 m/hr 239 6 37 00:00:54 0:17 min/m 121 5 27 00:26:56 8:41 min/m 167 5 25
Finished 181 Craig Dymock 122 01:18:16 M0 42 Male Berks Tri 00:07:32 1:53 sec/100m 97 32 83 00:01:54 293 49 209 00:39:45 18.1 m/hr 196 40 171 00:00:37 0:12 min/m 23 7 16 00:28:27 9:10 min/m 224 51 184
Finished 182 Helen Kennedy 169 01:18:19 F50 3 Female Farnham Tri 00:08:47 2:11 sec/100m 236 7 56 00:00:39 47 1 9 00:39:57 18.0 m/hr 204 6 28 00:00:59 0:19 min/m 159 10 42 00:27:55 9:00 min/m 196 4 35
Finished 183 Lee Burnham 11 01:18:21 M45 34 Male   00:06:11 1:32 sec/100m 16 1 13 00:01:14 168 28 128 00:38:30 18.7 m/hr 156 28 139 00:01:07 0:21 min/m 213 29 158 00:31:17 10:05 min/m 296 49 233
Finished 184 Mark Armstrong 178 01:18:22 M40 30 Male   00:07:31 1:52 sec/100m 96 15 82 00:01:24 202 23 148 00:37:47 19.1 m/hr 134 23 120 00:01:44 0:33 min/m 364 54 262 00:30:04 9:42 min/m 272 39 214
Finished 185 Mel Kirk 139 01:18:24 F35 6 Female Farnham Tri 00:07:47 1:56 sec/100m 126 7 26 00:01:09 148 5 33 00:40:03 18.0 m/hr 206 6 29 00:01:04 0:20 min/m 191 8 48 00:28:20 9:08 min/m 217 11 40
Finished 186 Thomas Sharples 120 01:18:25 M0 43 Male   00:07:00 1:45 sec/100m 64 23 55 00:01:26 211 40 153 00:41:23 17.4 m/hr 245 46 205 00:00:37 0:12 min/m 22 6 15 00:27:58 9:01 min/m 198 42 163
Finished 187 Debbie Pagan 140 01:18:26 F50 4 Female Fleet Tri 00:07:46 1:56 sec/100m 125 3 25 00:01:05 132 5 27 00:39:55 18.0 m/hr 202 5 27 00:01:08 0:22 min/m 219 11 55 00:28:29 9:11 min/m 229 5 43
Finished 188 Robert Matheson 409 01:18:28 M45 35 Male   00:10:17 2:34 sec/100m 334 51 252 00:02:10 317 48 226 00:37:51 19.0 m/hr 138 27 124 00:01:44 0:33 min/m 361 50 260 00:26:45 8:37 min/m 160 28 137
Finished 189 Sandra Barden 187 01:18:39 F50 5 Female Jo`s Tri 00:08:17 2:04 sec/100m 187 5 38 00:01:18 180 8 43 00:38:55 18.5 m/hr 170 3 20 00:00:50 0:16 min/m 98 5 20 00:29:18 9:27 min/m 252 6 50
Finished 190 David Copping 181 01:18:40 M45 36 Male CATS 00:08:22 2:05 sec/100m 197 34 156 00:01:19 185 31 138 00:41:42 17.3 m/hr 257 45 213 00:00:52 0:16 min/m 110 14 87 00:26:36 8:34 min/m 153 27 131
Finished 191 Daniel Tosti 293 01:18:45 M0 44 Male   00:07:58 1:59 sec/100m 143 37 112 00:01:12 160 35 122 00:40:24 17.8 m/hr 218 43 188 00:01:13 0:23 min/m 243 52 180 00:28:04 9:03 min/m 204 44 167
Finished 192 Georgia Jaackson 60 01:18:45 F35 7 Female Tri20 00:07:33 1:53 sec/100m 101 4 17 00:00:51 81 2 15 00:43:36 16.5 m/hr 296 11 57 00:00:55 0:17 min/m 134 5 33 00:25:49 8:19 min/m 126 6 16
Finished 193 Simon Bliss 104 01:18:58 M40 31 Male   00:07:50 1:57 sec/100m 132 19 105 00:01:04 128 16 101 00:39:00 18.5 m/hr 174 32 153 00:01:10 0:22 min/m 228 32 169 00:29:51 9:38 min/m 267 38 212
Finished 194 Simon Callow 186 01:18:58 M50 16 Male CATS 00:08:28 2:07 sec/100m 206 17 164 00:01:40 248 21 179 00:40:02 18.0 m/hr 205 19 177 00:00:41 0:13 min/m 40 4 32 00:28:07 9:04 min/m 206 19 169
Finished 195 Vince Fanning 18 01:18:59 M40 32 Male   00:06:53 1:43 sec/100m 55 11 46 00:01:36 238 31 171 00:40:06 18.0 m/hr 209 39 179 00:00:47 0:15 min/m 80 10 63 00:29:36 9:32 min/m 261 36 209
Finished 196 Jane Birkett 134 01:19:02 F35 8 Female   00:07:39 1:54 sec/100m 110 5 20 00:01:48 273 13 75 00:42:06 17.1 m/hr 273 9 47 00:01:03 0:20 min/m 181 7 46 00:26:25 8:31 min/m 149 8 21
Finished 197 Emma Newell 278 01:19:02 F0 9 Female CATS 00:08:16 2:04 sec/100m 183 12 37 00:01:09 149 10 34 00:41:25 17.4 m/hr 247 13 41 00:01:12 0:23 min/m 239 14 60 00:27:32 8:53 min/m 183 7 30
Finished 198 Rachael Way 243 01:19:16 F35 9 Female   00:09:58 2:29 sec/100m 323 14 79 00:01:28 217 9 57 00:40:35 17.7 m/hr 228 8 33 00:01:19 0:25 min/m 274 11 74 00:26:15 8:28 min/m 143 7 20
Finished 199 A Jenkins 221 01:19:18 M45 37 Male   00:07:48 1:57 sec/100m 128 18 101 00:01:41 254 39 182 00:38:44 18.6 m/hr 164 30 146 00:01:00 0:19 min/m 168 22 125 00:30:02 9:41 min/m 270 43 213
Finished 200 Mhorag Lane 235 01:19:21 F40 6 Female Fleet Tri 00:08:13 2:03 sec/100m 172 8 36 00:01:24 203 15 53 00:42:17 17.0 m/hr 276 11 49 00:02:21 0:45 min/m 399 23 109 00:25:25 8:11 min/m 114 3 13
Finished 201 Giancarlo Tosti 305 01:19:25 M45 38 Male   00:10:19 2:34 sec/100m 335 52 253 00:01:29 224 37 163 00:38:40 18.6 m/hr 162 29 144 00:01:42 0:33 min/m 352 49 255 00:27:42 8:56 min/m 188 31 158
Finished 202 Duncan Janaway 159 01:19:29 M35 29 Male Fleet Tri 00:08:55 2:13 sec/100m 249 31 191 00:01:35 237 27 170 00:38:20 18.8 m/hr 153 27 136 00:01:04 0:20 min/m 189 24 141 00:29:33 9:32 min/m 259 36 207
Finished 203 Antony Rose 349 01:19:32 M40 33 Male Portsmouth Tri 00:09:51 2:27 sec/100m 315 51 242 00:01:59 301 40 214 00:40:22 17.8 m/hr 216 41 186 00:02:20 0:45 min/m 398 58 288 00:24:58 8:03 min/m 96 15 85
Finished 204 Tracey Mills 254 01:19:36 F50 6 Female   00:09:40 2:25 sec/100m 299 9 68 00:01:26 208 10 56 00:41:33 17.3 m/hr 253 8 43 00:00:59 0:19 min/m 154 8 39 00:25:57 8:22 min/m 130 1 18
Finished 205 Neil Forsyth 244 01:19:38 M45 39 Male   00:08:58 2:14 sec/100m 253 43 195 00:01:28 220 36 159 00:41:53 17.2 m/hr 264 47 219 00:01:42 0:33 min/m 351 48 254 00:25:36 8:15 min/m 121 22 106
Finished 206 David Simpson 442 01:19:42 M35 30 Male   00:09:48 2:27 sec/100m 311 37 239 00:01:39 247 28 178 00:40:07 17.9 m/hr 211 32 181 00:01:22 0:26 min/m 288 34 210 00:27:15 8:47 min/m 177 27 151
Finished 207 Martin Bricknell 152 01:19:49 M0 45 Male Farnham Tri 00:07:39 1:54 sec/100m 112 33 92 00:01:39 244 44 175 00:40:36 17.7 m/hr 229 44 196 00:00:44 0:14 min/m 53 16 41 00:29:09 9:24 min/m 246 54 199
Finished 208 Tim Chapman 418 01:19:52 M50 17 Male CATS 00:07:58 1:59 sec/100m 147 10 116 00:01:58 300 28 213 00:39:34 18.2 m/hr 190 18 166 00:01:50 0:35 min/m 372 31 269 00:28:30 9:11 min/m 231 22 187
Finished 209 Richard Thorne 323 01:19:53 M40 34 Male   00:09:15 2:18 sec/100m 270 40 210 00:02:20 336 47 240 00:40:27 17.8 m/hr 220 42 190 00:00:58 0:18 min/m 153 19 115 00:27:01 8:43 min/m 171 31 146
Finished 210 Christopher Thompson 106 01:19:59 M50 18 Male Farnham Tri 00:08:24 2:06 sec/100m 204 16 162 00:01:12 159 11 121 00:41:59 17.1 m/hr 269 25 222 00:01:47 0:34 min/m 371 30 268 00:26:53 8:40 min/m 165 14 141
Finished 211 Charlotte Craig 337 01:20:02 F50 7 Female Dorking & Mole 00:07:36 1:54 sec/100m 106 1 19 00:01:21 194 9 50 00:40:58 17.6 m/hr 236 7 35 00:00:44 0:14 min/m 59 3 15 00:29:47 9:36 min/m 265 7 55
Finished 212 Louis Martinelli 211 01:20:03 M35 31 Male   00:08:10 2:02 sec/100m 167 23 134 00:03:25 391 41 285 00:40:53 17.6 m/hr 234 34 201 00:01:28 0:28 min/m 310 37 227 00:26:06 8:25 min/m 136 23 118
Finished 213 Chloe Bond 25 01:20:07 F0 10 Female Basingstoke Tri 00:06:14 1:33 sec/100m 18 3 4 00:00:49 75 5 13 00:41:22 17.4 m/hr 244 12 40 00:00:33 0:10 min/m 11 4 4 00:31:11 10:03 min/m 293 17 62
Finished 214 Glen Pennock 383 01:20:19 M40 35 Male   00:09:42 2:25 sec/100m 302 49 234 00:01:58 299 39 212 00:39:43 18.1 m/hr 195 37 170 00:00:55 0:17 min/m 129 15 98 00:28:00 9:01 min/m 200 33 165
Finished 215 Jeremy Cooke 291 01:20:24 M50 19 Male FWRC 00:10:21 2:35 sec/100m 337 30 255 00:01:44 259 24 186 00:40:29 17.8 m/hr 222 22 192 00:01:20 0:25 min/m 277 19 200 00:26:38 8:35 min/m 156 11 134
Finished 216 Angela Beckwith 20 01:20:38 F0 11 Female TVT 00:07:11 1:47 sec/100m 74 6 12 00:00:54 91 8 19 00:39:28 18.2 m/hr 185 8 23 00:01:23 0:27 min/m 296 22 78 00:31:39 10:12 min/m 304 20 68
Finished 217 Paul Crate 126 01:20:41 M0 46 Male   00:07:43 1:55 sec/100m 118 35 96 00:01:42 257 45 185 00:39:03 18.4 m/hr 176 36 155 00:01:01 0:19 min/m 171 38 127 00:31:10 10:03 min/m 292 60 231
Finished 218 Simon Twigg 443 01:20:43 M40 36 Male   00:08:54 2:13 sec/100m 246 33 188 00:01:20 188 21 139 00:38:10 18.9 m/hr 147 26 130 00:01:25 0:27 min/m 300 46 220 00:30:53 9:57 min/m 287 40 227
Finished 219 Gary Gray 236 01:20:48 M55 9 Male Portsmouth Tri 00:08:54 2:13 sec/100m 245 11 187 00:02:02 307 14 220 00:39:42 18.1 m/hr 194 11 169 00:01:06 0:21 min/m 206 9 153 00:29:10 9:24 min/m 247 12 200
Finished 220 Brian Mcderimid 268 01:20:50 M50 20 Male   00:08:33 2:08 sec/100m 212 18 169 00:01:50 283 27 202 00:42:19 17.0 m/hr 277 28 227 00:01:26 0:27 min/m 305 24 224 00:26:40 8:36 min/m 157 12 135
Finished 221 Claire Knibbs 239 01:20:52 F35 10 Female   00:08:46 2:11 sec/100m 234 9 54 00:01:36 239 11 66 00:42:51 16.8 m/hr 282 10 50 00:00:53 0:17 min/m 119 4 26 00:26:43 8:37 min/m 158 9 23
Finished 222 Mark Baldwin 154 01:20:59 M40 37 Male Fleet Tri 00:08:16 2:04 sec/100m 181 28 145 00:01:00 117 13 93 00:44:21 16.2 m/hr 312 52 248 00:01:11 0:23 min/m 235 33 174 00:26:09 8:26 min/m 138 23 120
Finished 223 Richard Scott 153 01:21:02 M50 21 Male Hart SC 00:07:56 1:59 sec/100m 141 9 111 00:01:41 252 23 181 00:42:09 17.1 m/hr 274 27 226 00:00:47 0:15 min/m 84 10 67 00:28:27 9:10 min/m 226 21 186
Finished 224 Bronwyn Clifford 197 01:21:07 F35 11 Female PHOENIX TRI 00:09:21 2:20 sec/100m 277 10 61 00:01:54 291 15 82 00:40:05 18.0 m/hr 208 7 30 00:01:55 0:37 min/m 376 15 102 00:27:50 8:59 min/m 195 10 34
Finished 225 Steven Squires 162 01:21:12 M40 38 Male   00:08:40 2:10 sec/100m 222 31 175 00:02:57 374 55 270 00:39:33 18.2 m/hr 189 36 165 00:01:01 0:19 min/m 173 24 129 00:29:48 9:36 min/m 266 37 211
Finished 226 Julian Webb 358 01:21:14 M50 22 Male CATS 00:11:20 2:50 sec/100m 374 34 274 00:01:47 269 25 193 00:38:44 18.6 m/hr 163 15 145 00:01:41 0:32 min/m 347 28 252 00:27:40 8:55 min/m 187 17 157
Finished 227 Chris Parkes-Bristow 73 01:21:15 M50 23 Male TVT 00:08:19 2:04 sec/100m 191 13 152 00:01:20 190 14 140 00:39:14 18.3 m/hr 180 17 158 00:00:35 0:11 min/m 14 1 10 00:31:45 10:14 min/m 306 24 238
Finished 228 Richard Haines 69 01:21:22 M35 32 Male Tri 20 00:07:21 1:50 sec/100m 83 12 69 00:00:53 90 17 71 00:42:45 16.8 m/hr 281 38 231 00:00:39 0:12 min/m 27 5 19 00:29:42 9:35 min/m 263 37 210
Finished 229 Simon Berry 391 01:21:23 M35 33 Male   00:09:55 2:28 sec/100m 320 39 244 00:02:53 367 38 265 00:39:52 18.1 m/hr 200 31 174 00:01:46 0:34 min/m 369 40 266 00:27:02 8:43 min/m 172 26 147
Finished 230 Steve Barr 438 01:21:32 M45 40 Male   00:07:43 1:55 sec/100m 117 17 95 00:01:46 266 41 191 00:41:48 17.2 m/hr 262 46 217 00:00:57 0:18 min/m 147 20 112 00:29:16 9:26 min/m 250 41 202
Finished 231 Alison Gordon 441 01:21:36 F45 4 Female   00:10:34 2:38 sec/100m 344 9 87 00:01:19 183 4 44 00:42:58 16.8 m/hr 285 6 52 00:01:26 0:27 min/m 303 8 79 00:25:18 8:09 min/m 109 2 12
Finished 232 Robert Bruce 258 01:21:41 M45 41 Male   00:08:56 2:14 sec/100m 250 41 192 00:00:55 96 14 76 00:42:04 17.1 m/hr 272 50 225 00:01:03 0:20 min/m 186 24 138 00:28:45 9:16 min/m 237 40 192
Finished 233 John Nicholson 21 01:21:45 M55 10 Male Farnham Tri 00:13:11 3:17 sec/100m 397 19 287 00:00:57 105 5 84 00:38:50 18.5 m/hr 166 10 148 00:00:59 0:19 min/m 161 7 119 00:27:46 8:57 min/m 190 9 160
Finished 234 Ian Froome 157 01:21:54 M45 42 Male   00:08:16 2:04 sec/100m 180 32 144 00:01:26 209 35 151 00:40:43 17.7 m/hr 230 40 197 00:01:23 0:27 min/m 295 41 216 00:30:05 9:42 min/m 273 44 215
Finished 235 Grant Series 265 01:21:55 M40 39 Male   00:09:00 2:15 sec/100m 257 36 199 00:01:49 279 38 199 00:37:23 19.3 m/hr 124 20 112 00:01:30 0:29 min/m 322 48 235 00:32:28 10:28 min/m 320 47 249
Finished 236 Martin Hancox 342 01:22:01 M0 47 Male   00:06:35 1:38 sec/100m 33 13 28 00:01:02 122 29 96 00:41:51 17.2 m/hr 263 48 218 00:00:55 0:18 min/m 136 33 102 00:31:48 10:15 min/m 308 63 239
Finished 237 Alison Richardson 210 01:22:03 F40 7 Female Farnham Tri 00:09:24 2:21 sec/100m 283 14 64 00:01:11 156 8 37 00:41:54 17.2 m/hr 265 8 45 00:00:55 0:17 min/m 125 7 30 00:28:37 9:13 min/m 234 12 45
Finished 238 Simon Milner 251 01:22:09 M45 43 Male   00:08:30 2:07 sec/100m 208 36 165 00:01:55 295 46 210 00:40:04 18.0 m/hr 207 36 178 00:01:18 0:25 min/m 273 36 198 00:30:20 9:47 min/m 278 46 220
Finished 239 Christopher Taylor-F 195 01:22:09 M45 44 Male   00:09:00 2:15 sec/100m 256 44 198 00:02:18 333 51 239 00:40:30 17.8 m/hr 223 39 193 00:02:00 0:38 min/m 384 56 277 00:28:20 9:08 min/m 218 36 178
Finished 240 Ian Wall 365 01:22:40 M55 11 Male SOTONIA CC 00:11:06 2:46 sec/100m 365 15 269 00:01:56 296 12 211 00:37:19 19.3 m/hr 115 8 103 00:01:17 0:25 min/m 271 12 196 00:31:10 10:03 min/m 291 14 230
Finished 241 Stuart Abbott 23 01:22:40 M40 40 Male Fleet Tri 00:06:49 1:42 sec/100m 45 10 38 00:00:59 113 11 90 00:39:26 18.3 m/hr 183 34 161 00:00:59 0:19 min/m 155 20 116 00:34:25 11:06 min/m 352 53 268
Finished 242 Richard Cannon-Davis 227 01:22:42 M35 34 Male   00:09:44 2:26 sec/100m 306 36 236 00:03:10 383 39 278 00:38:14 18.8 m/hr 148 23 131 00:02:10 0:42 min/m 392 41 284 00:29:25 9:29 min/m 255 35 205
Finished 243 Chris Barrett 248 01:22:47 M45 45 Male SOMERSET TRI 00:08:41 2:10 sec/100m 228 38 178 00:00:58 111 20 89 00:43:08 16.7 m/hr 286 51 233 00:00:41 0:13 min/m 42 3 34 00:29:20 9:27 min/m 254 42 204
Finished 244 Jez Hobbs 295 01:22:50 M35 35 Male Portsmouth Tri 00:09:16 2:19 sec/100m 271 34 211 00:02:13 320 34 229 00:37:41 19.1 m/hr 131 22 119 00:01:15 0:24 min/m 258 30 188 00:32:24 10:27 min/m 318 40 247
Finished 245 Robert Mills 304 01:22:52 M55 12 Male   00:09:24 2:21 sec/100m 280 12 218 00:02:00 303 13 216 00:40:33 17.8 m/hr 227 12 195 00:02:06 0:40 min/m 389 18 281 00:28:48 9:17 min/m 238 11 193
Finished 246 Alex Campbell 127 01:22:59 F55 3 Female Portsmouth Tri 00:07:16 1:49 sec/100m 79 1 13 00:01:00 115 3 23 00:41:30 17.3 m/hr 251 3 42 00:01:05 0:21 min/m 197 4 49 00:32:06 10:21 min/m 311 4 70
Finished 247 Nicky Rumsey 117 01:23:01 F45 5 Female Tri20 00:08:34 2:08 sec/100m 214 4 44 00:01:28 218 5 58 00:41:44 17.2 m/hr 260 4 44 00:01:27 0:28 min/m 307 9 81 00:29:46 9:36 min/m 264 6 54
Finished 248 Anthony Lee 46 01:23:03 M55 13 Male   00:06:57 1:44 sec/100m 56 2 47 00:01:06 136 9 107 00:43:26 16.6 m/hr 291 15 235 00:01:26 0:27 min/m 301 14 221 00:30:15 9:45 min/m 275 13 217
Finished 249 Inga Taylor 83 01:23:06 F40 8 Female Farnham Tri 00:07:00 1:45 sec/100m 65 2 10 00:01:05 133 4 28 00:40:32 17.8 m/hr 225 5 32 00:01:14 0:24 min/m 250 17 64 00:33:14 10:43 min/m 337 20 79
Finished 250 Brain Grierson 249 01:23:13 M65 1 Male Tri UK 00:10:51 2:42 sec/100m 354 1 264 00:01:32 231 1 167 00:39:48 18.1 m/hr 198 1 173 00:01:10 0:22 min/m 230 2 171 00:30:15 9:45 min/m 276 2 218
Finished 251 Michael Kennedy 335 01:23:17 M45 46 Male Berks Tri 00:10:48 2:42 sec/100m 351 55 261 00:02:15 326 50 234 00:40:23 17.8 m/hr 217 38 187 00:01:30 0:29 min/m 321 43 234 00:28:18 9:07 min/m 216 35 177
Finished 252 Peter Brown 377 01:23:23 M60 2 Male   00:10:47 2:41 sec/100m 349 6 259 00:02:06 310 4 222 00:42:23 17.0 m/hr 278 4 228 00:00:50 0:16 min/m 96 1 78 00:27:16 8:47 min/m 178 2 152
Finished 253 David Eley 319 01:23:27 M0 48 Male   00:08:11 2:02 sec/100m 171 40 136 00:01:08 144 33 112 00:44:59 16.0 m/hr 332 56 257 00:01:09 0:22 min/m 223 49 166 00:27:58 9:01 min/m 199 43 164
Finished 254 Jamie Larter 209 01:23:39 M0 49 Male Berks Tri 00:08:16 2:04 sec/100m 182 43 146 00:01:08 145 34 113 00:42:38 16.9 m/hr 280 49 230 00:00:47 0:15 min/m 82 24 65 00:30:50 9:56 min/m 286 59 226
Finished 255 Debbie Ives 350 01:23:39 F0 12 Female   00:10:25 2:36 sec/100m 340 28 84 00:01:48 274 20 76 00:40:55 17.6 m/hr 235 9 34 00:01:11 0:22 min/m 232 13 58 00:29:17 9:27 min/m 251 13 49
Finished 256 Adam Nuckley 52 01:23:43 M0 50 Male   00:06:52 1:43 sec/100m 52 19 43 00:02:08 314 52 224 00:45:15 15.9 m/hr 338 58 263 00:00:56 0:18 min/m 139 34 105 00:29:08 9:24 min/m 244 53 198
Finished 257 Adrienne Corr 196 01:23:53 F0 13 Female Portsmouth Tri 00:07:55 1:58 sec/100m 137 10 30 00:01:18 179 11 42 00:44:28 16.2 m/hr 317 16 67 00:01:07 0:21 min/m 209 11 52 00:29:04 9:22 min/m 242 12 46
Finished 258 Stephen Cox 412 01:23:59 M40 41 Male Farnham Tri 00:09:21 2:20 sec/100m 276 42 216 00:02:29 343 49 245 00:44:15 16.3 m/hr 310 51 247 00:01:04 0:20 min/m 190 28 142 00:26:47 8:38 min/m 162 28 138
Finished 259 Stuart Smith 462 01:24:18 M40 42 Male   00:09:00 2:15 sec/100m 255 35 197 00:01:22 199 22 146 00:40:29 17.8 m/hr 221 43 191 00:01:08 0:22 min/m 217 30 162 00:32:17 10:25 min/m 316 45 245
Finished 260 Helen Wiles 424 01:24:22 F0 14 Female   00:09:49 2:27 sec/100m 314 23 73 00:02:35 348 29 98 00:41:07 17.5 m/hr 238 10 36 00:01:09 0:22 min/m 224 12 56 00:30:03 9:41 min/m 271 16 58
Finished 261 Linda Maule 138 01:24:23 F40 9 Female Tri20 00:07:40 1:55 sec/100m 113 5 21 00:01:20 187 12 47 00:46:55 15.3 m/hr 361 19 84 00:00:58 0:18 min/m 150 9 37 00:27:29 8:52 min/m 182 8 29
Finished 262 Brian Blackman 281 01:24:26 M60 3 Male Dorking & Mole AC 00:10:02 2:30 sec/100m 324 4 245 00:01:29 221 2 160 00:40:32 17.8 m/hr 226 3 194 00:01:36 0:31 min/m 338 6 245 00:30:45 9:55 min/m 284 6 224
Finished 263 Marian Erwood 95 01:24:42 F50 8 Female Farnham Tri 00:07:46 1:56 sec/100m 123 2 24 00:00:47 68 2 11 00:39:49 18.1 m/hr 199 4 26 00:00:59 0:19 min/m 156 9 40 00:35:20 11:23 min/m 364 12 91
Finished 264 Peter White 194 01:24:43 M45 47 Male   00:09:29 2:22 sec/100m 287 48 223 00:02:49 361 55 259 00:41:57 17.2 m/hr 268 48 221 00:02:08 0:41 min/m 390 58 282 00:28:33 9:12 min/m 232 38 188
Finished 265 Murray Croton 452 01:24:43 M45 48 Male   00:10:48 2:42 sec/100m 350 54 260 00:01:52 287 44 205 00:43:30 16.5 m/hr 293 53 236 00:01:32 0:29 min/m 329 44 238 00:26:59 8:42 min/m 168 29 143
Finished 266 Stuart Mitchell 273 01:24:46 M40 43 Male   00:10:55 2:43 sec/100m 356 53 265 00:02:15 327 45 235 00:38:23 18.8 m/hr 155 28 138 00:01:02 0:20 min/m 178 26 133 00:32:09 10:22 min/m 312 44 242
Finished 267 Fraser Currie 201 01:24:50 F40 10 Female   00:09:33 2:23 sec/100m 290 15 65 00:01:49 276 18 77 00:43:14 16.6 m/hr 288 12 54 00:01:42 0:33 min/m 354 22 96 00:28:30 9:11 min/m 230 11 44
Finished 268 Tracy Davidson 300 01:24:54 F40 11 Female FLEET & CROOKHAM A.C 00:10:42 2:40 sec/100m 347 18 89 00:01:20 191 13 49 00:44:08 16.3 m/hr 309 15 62 00:01:23 0:27 min/m 294 19 77 00:27:19 8:48 min/m 180 7 28
Finished 269 James Greenham 103 01:24:54 M40 44 Male Tri 20 00:08:07 2:01 sec/100m 164 25 131 00:01:25 206 24 150 00:41:27 17.4 m/hr 249 45 208 00:01:16 0:24 min/m 266 41 193 00:32:37 10:31 min/m 324 48 250
Finished 270 Lindsay Webb 219 01:24:57 F40 12 Female Fleet Tri 00:08:40 2:10 sec/100m 224 11 48 00:02:08 313 21 88 00:40:31 17.8 m/hr 224 4 31 00:01:00 0:19 min/m 165 11 43 00:32:36 10:31 min/m 323 18 74
Finished 271 Steven Sugden 170 01:24:59 M50 24 Male CATS 00:08:24 2:06 sec/100m 203 15 161 00:02:42 357 32 255 00:38:02 18.9 m/hr 140 11 126 00:02:08 0:41 min/m 391 33 283 00:33:43 10:52 min/m 344 32 263
Finished 272 Greg Robinson 389 01:25:03 M50 25 Male   00:12:14 3:03 sec/100m 389 35 282 00:01:27 216 18 158 00:40:26 17.8 m/hr 219 21 189 00:01:26 0:27 min/m 304 23 223 00:29:27 9:30 min/m 257 23 206
Finished 273 Alex Greetham 225 01:25:21 M35 36 Male   00:07:23 1:50 sec/100m 84 13 70 00:01:44 261 31 188 00:44:03 16.3 m/hr 307 40 246 00:01:22 0:26 min/m 285 33 207 00:31:13 10:04 min/m 294 38 232
Finished 274 Tessa Minnis 392 01:25:29 F40 13 Female TVT 00:12:10 3:02 sec/100m 387 24 106 00:01:06 137 5 29 00:41:55 17.2 m/hr 266 9 46 00:01:02 0:20 min/m 179 12 45 00:29:13 9:25 min/m 248 13 48
Finished 275 Patrick Fitzgerald 343 01:25:32 M45 49 Male Portsmouth Tri 00:11:02 2:45 sec/100m 362 56 268 00:01:21 196 33 144 00:41:23 17.4 m/hr 246 43 206 00:00:45 0:14 min/m 64 5 48 00:30:59 9:59 min/m 288 48 228
Finished 276 Colin Meadows 247 01:25:34 M55 14 Male   00:08:26 2:06 sec/100m 205 8 163 00:02:12 319 15 228 00:45:11 15.9 m/hr 336 18 261 00:01:41 0:32 min/m 346 16 251 00:28:02 9:02 min/m 202 10 166
Finished 277 Duncan Graham 301 01:25:39 M45 50 Male CATS 00:09:34 2:23 sec/100m 293 49 227 00:01:21 192 32 141 00:41:11 17.5 m/hr 240 41 203 00:01:35 0:30 min/m 335 46 243 00:31:57 10:18 min/m 310 50 241
Finished 278 Paul Ricchards 206 01:25:41 M0 51 Male Farnham Tri 00:08:00 2:00 sec/100m 153 38 121 00:02:10 316 53 225 00:44:47 16.1 m/hr 326 54 251 00:01:33 0:30 min/m 332 61 241 00:29:34 9:32 min/m 260 55 208
Finished 279 Johnathan Humphreys 317 01:25:45 M0 52 Male Tri20 00:10:14 2:33 sec/100m 333 64 251 00:02:00 304 50 217 00:41:36 17.3 m/hr 254 47 210 00:01:23 0:26 min/m 291 57 213 00:30:29 9:50 min/m 281 57 222
Finished 280 David Lloyd 193 01:25:45 M50 26 Male CATS 00:08:21 2:05 sec/100m 196 14 155 00:01:12 158 10 120 00:41:47 17.2 m/hr 261 24 216 00:01:00 0:19 min/m 167 14 124 00:33:24 10:46 min/m 339 29 259
Finished 281 Guy Hollis 370 01:25:45 M0 53 Male   00:10:12 2:33 sec/100m 330 63 249 00:03:06 379 65 275 00:43:35 16.5 m/hr 295 50 238 00:00:40 0:13 min/m 37 12 29 00:28:10 9:05 min/m 210 47 172
Finished 282 Simon Howarth 303 01:25:59 M50 27 Male CATS 00:08:33 2:08 sec/100m 213 19 170 00:01:41 251 22 180 00:41:59 17.1 m/hr 270 26 223 00:01:43 0:33 min/m 357 29 258 00:32:39 10:32 min/m 325 27 251
Finished 283 Rob Greaves 385 01:26:12 M0 54 Male   00:09:43 2:25 sec/100m 304 59 235 00:02:31 345 57 247 00:44:01 16.4 m/hr 305 52 244 00:01:50 0:35 min/m 374 65 271 00:28:04 9:03 min/m 205 45 168
Finished 284 Chris Harris 262 01:26:15 M50 28 Male Berks Tri 00:10:14 2:33 sec/100m 332 29 250 00:01:31 228 20 166 00:41:30 17.3 m/hr 252 23 209 00:01:08 0:22 min/m 215 17 160 00:31:55 10:17 min/m 309 25 240
Finished 285 Roger Hollis 407 01:26:16 M60 4 Male   00:12:01 3:00 sec/100m 385 8 280 00:03:19 388 7 283 00:40:18 17.9 m/hr 214 2 184 00:02:23 0:46 min/m 401 8 290 00:28:14 9:06 min/m 213 3 174
Finished 286 Rebecca French 176 01:26:19 F35 12 Female Pheonix Tri 00:07:52 1:58 sec/100m 134 8 28 00:01:20 189 7 48 00:44:32 16.2 m/hr 320 13 70 00:01:30 0:29 min/m 320 13 85 00:31:03 10:01 min/m 289 12 61
Finished 287 Katie Harris 414 01:26:24 F0 15 Female B2P TRI 00:10:12 2:33 sec/100m 329 27 81 00:02:13 322 24 90 00:44:29 16.2 m/hr 319 17 69 00:01:39 0:32 min/m 342 29 92 00:27:49 8:58 min/m 194 8 33
Finished 288 Joanne Heine 192 01:26:25 F40 14 Female Fleet Tri 00:08:20 2:05 sec/100m 195 9 41 00:01:17 177 10 41 00:45:56 15.7 m/hr 347 17 81 00:00:44 0:14 min/m 55 3 13 00:30:43 9:54 min/m 283 15 60
Finished 289 Derek Graves 274 01:26:29 M65 2 Male Farnham Tri 00:13:50 3:27 sec/100m 400 4 289 00:01:37 241 2 173 00:41:43 17.3 m/hr 259 2 215 00:01:03 0:20 min/m 183 1 136 00:28:15 9:06 min/m 214 1 175
Finished 290 Sarah Bond 198 01:26:32 F50 9 Female Basingstoke Tri 00:08:48 2:12 sec/100m 238 8 57 00:01:32 229 11 61 00:45:28 15.8 m/hr 341 11 77 00:00:43 0:14 min/m 47 1 10 00:29:59 9:40 min/m 269 8 57
Finished 291 Nathan Boatwright 353 01:26:34 M35 37 Male   00:09:24 2:21 sec/100m 281 35 219 00:01:47 271 32 195 00:41:38 17.3 m/hr 255 36 211 00:01:28 0:28 min/m 311 38 228 00:32:15 10:24 min/m 314 39 243
Finished 292 Anita Huddleston 200 01:26:42 F45 6 Female VICTORY ATHLETIC 00:08:47 2:11 sec/100m 235 7 55 00:02:16 331 10 92 00:43:54 16.4 m/hr 304 7 60 00:02:15 0:43 min/m 395 12 108 00:29:59 9:40 min/m 268 7 56
Finished 293 Naomi Shaylor 238 01:26:52 F40 15 Female   00:08:30 2:07 sec/100m 207 10 43 00:02:53 368 23 101 00:47:08 15.3 m/hr 363 20 86 00:01:32 0:29 min/m 328 21 89 00:27:17 8:48 min/m 179 6 27
Finished 294 Yvonne Grayson 318 01:26:58 F45 7 Female Farnham Tri 00:11:02 2:45 sec/100m 361 10 94 00:01:50 281 7 79 00:42:52 16.8 m/hr 283 5 51 00:02:03 0:39 min/m 386 11 106 00:29:09 9:24 min/m 245 5 47
Finished 295 Douglas Wates 390 01:27:01 M35 38 Male   00:11:10 2:47 sec/100m 369 40 271 00:03:17 386 40 281 00:43:51 16.4 m/hr 302 39 242 00:00:53 0:17 min/m 116 19 92 00:27:48 8:58 min/m 192 29 161
Finished 296 Craig Beecham 340 01:27:02 M40 45 Male   00:09:20 2:20 sec/100m 275 41 215 00:02:06 311 43 223 00:39:57 18.0 m/hr 203 38 176 00:01:29 0:28 min/m 315 47 231 00:34:09 11:01 min/m 350 52 267
Finished 297 Craig Harry 205 01:27:05 M40 46 Male   00:09:46 2:26 sec/100m 310 50 238 00:02:02 308 42 221 00:42:37 16.9 m/hr 279 46 229 00:01:14 0:24 min/m 251 38 185 00:31:25 10:08 min/m 300 42 235
Finished 298 Graham Mcclellan 425 01:27:14 M45 51 Male Portsmouth Tri 00:11:38 2:54 sec/100m 378 57 276 00:03:06 380 57 276 00:37:28 19.2 m/hr 128 25 116 00:01:46 0:34 min/m 367 52 264 00:33:14 10:43 min/m 338 52 258
Finished 299 Lawrence Wilkinson 299 01:27:17 M0 55 Male   00:09:48 2:27 sec/100m 312 61 240 00:02:59 375 62 271 00:46:52 15.4 m/hr 359 63 275 00:01:16 0:24 min/m 264 55 191 00:26:20 8:29 min/m 147 35 127
Finished 300 Richard Walker 344 01:27:21 M0 56 Male   00:09:41 2:25 sec/100m 300 57 232 00:02:14 323 54 231 00:46:38 15.4 m/hr 355 62 272 00:00:45 0:14 min/m 62 19 46 00:28:24 9:09 min/m 221 49 181
Finished 301 Denny Moody 352 01:27:42 F55 4 Female   00:10:31 2:37 sec/100m 341 5 85 00:01:41 250 5 69 00:44:06 16.3 m/hr 308 4 61 00:00:55 0:17 min/m 124 2 29 00:30:28 9:49 min/m 280 3 59
Finished 302 Richard Norris 184 01:27:45 M35 39 Male   00:08:56 2:14 sec/100m 252 32 194 00:02:42 358 37 256 00:46:42 15.4 m/hr 357 42 274 00:00:47 0:15 min/m 83 15 66 00:28:35 9:13 min/m 233 31 189
Finished 303 Alison Nicholls 241 01:27:46 F45 8 Female   00:08:10 2:02 sec/100m 168 3 34 00:01:38 242 6 67 00:45:19 15.9 m/hr 339 9 75 00:01:14 0:23 min/m 249 6 63 00:31:23 10:07 min/m 299 9 65
Finished 304 Jacqui Cooper 314 01:27:46 F40 16 Female MOLE & DORKING AC 00:08:41 2:10 sec/100m 227 12 50 00:02:09 315 22 89 00:43:28 16.6 m/hr 292 14 56 00:00:51 0:16 min/m 105 4 23 00:32:36 10:31 min/m 322 17 73
Finished 305 Lizzie Byrnes 431 01:27:50 F0 16 Female   00:09:55 2:28 sec/100m 319 25 76 00:03:25 392 32 105 00:43:38 16.5 m/hr 297 14 58 00:01:43 0:33 min/m 359 32 99 00:29:40 9:34 min/m 262 15 53
Finished 306 Nic Blaszkowicz 455 01:27:50 M0 57 Male   00:09:17 2:19 sec/100m 272 52 212 00:02:44 359 58 257 00:46:20 15.5 m/hr 353 60 270 00:01:03 0:20 min/m 184 42 137 00:28:25 9:10 min/m 223 50 183
Finished 307 Kieth Roberts 96 01:27:59 M45 52 Male   00:08:31 2:07 sec/100m 211 37 168 00:03:27 394 58 287 00:40:06 18.0 m/hr 210 37 180 00:01:57 0:37 min/m 381 55 276 00:33:57 10:57 min/m 349 53 266
Finished 308 Mark Hazelden 290 01:28:00 M40 47 Male Farnham Tri 00:09:02 2:15 sec/100m 260 38 202 00:01:44 260 33 187 00:43:53 16.4 m/hr 303 50 243 00:01:38 0:31 min/m 340 52 247 00:31:44 10:14 min/m 305 43 237
Finished 309 George Copping 357 01:28:26 M0 58 Male CATS 00:09:31 2:22 sec/100m 288 55 224 00:03:04 378 64 274 00:44:37 16.1 m/hr 322 53 250 00:01:28 0:28 min/m 314 59 230 00:30:16 9:45 min/m 277 56 219
Finished 310 Sue Graves 275 01:28:29 F60 1 Female Farnham Tri 00:08:46 2:11 sec/100m 233 1 53 00:01:09 147 2 32 00:44:46 16.1 m/hr 325 2 74 00:01:11 0:23 min/m 234 1 59 00:32:35 10:30 min/m 321 1 72
Finished 311 Kevin Mctaggart 336 01:28:30 M55 15 Male Portsmouth Tri 00:10:12 2:33 sec/100m 328 13 248 00:02:15 325 16 233 00:41:41 17.3 m/hr 256 13 212 00:02:03 0:39 min/m 387 17 279 00:32:17 10:24 min/m 315 15 244
Finished 312 Geoff Cox 331 01:28:30 M0 59 Male   00:10:24 2:36 sec/100m 339 65 256 00:03:22 390 67 284 00:46:13 15.6 m/hr 350 59 268 00:01:05 0:21 min/m 196 45 147 00:27:26 8:51 min/m 181 39 153
Finished 313 Phil Bacon 307 01:28:35 M40 48 Male Fleet Tri 00:09:39 2:24 sec/100m 297 47 230 00:01:46 264 34 190 00:45:06 16.0 m/hr 334 53 259 00:00:53 0:17 min/m 117 13 93 00:31:09 10:02 min/m 290 41 229
Finished 314 Neal Jacob 267 01:28:40 M40 49 Male   00:09:29 2:22 sec/100m 286 44 222 00:01:48 272 36 196 00:43:45 16.5 m/hr 299 49 240 00:01:16 0:24 min/m 261 40 189 00:32:21 10:26 min/m 317 46 246
Finished 315 Emma Redding 373 01:28:43 F40 17 Female CATS 00:11:22 2:50 sec/100m 375 20 100 00:01:22 200 14 52 00:42:10 17.1 m/hr 275 10 48 00:00:59 0:19 min/m 157 10 41 00:32:48 10:35 min/m 328 19 76
Finished 316 Claudia Shand 252 01:28:47 F55 5 Female Farnham Tri 00:09:23 2:20 sec/100m 278 4 62 00:01:26 207 4 55 00:44:28 16.2 m/hr 318 5 68 00:01:01 0:19 min/m 174 3 44 00:32:43 10:33 min/m 326 5 75
Finished 317 Kate Fitzgerald 436 01:28:51 F40 18 Female   00:09:57 2:29 sec/100m 321 16 77 00:01:33 236 16 65 00:47:45 15.1 m/hr 370 21 89 00:01:05 0:21 min/m 201 14 50 00:28:28 9:11 min/m 228 10 42
Finished 318 John Bennison 108 01:28:55 M55 16 Male Farnham Tri 00:07:58 1:59 sec/100m 145 5 114 00:00:40 49 3 40 00:41:43 17.3 m/hr 258 14 214 00:01:05 0:21 min/m 194 8 145 00:37:29 12:05 min/m 384 19 285
Finished 319 Kevin Abbott 369 01:28:57 M40 50 Male   00:10:31 2:37 sec/100m 342 52 257 00:03:03 377 56 273 00:45:08 15.9 m/hr 335 54 260 00:00:58 0:18 min/m 151 18 114 00:29:15 9:26 min/m 249 35 201
Finished 320 Neil Shoesmith 453 01:28:59 M35 40 Male   00:13:57 3:29 sec/100m 401 42 290 00:02:36 353 36 252 00:41:57 17.2 m/hr 267 37 220 00:01:27 0:28 min/m 309 36 226 00:29:00 9:21 min/m 241 33 196
Finished 321 Nigel Downes 351 01:29:37 M60 5 Male   00:10:11 2:32 sec/100m 326 5 247 00:03:25 393 8 286 00:45:29 15.8 m/hr 343 6 264 00:01:35 0:30 min/m 337 5 244 00:28:55 9:19 min/m 239 4 194
Finished 322 Isobel Jenkin 28 01:29:44 F50 10 Female TVT 00:11:00 2:45 sec/100m 359 11 93 00:01:45 263 12 72 00:43:47 16.4 m/hr 300 10 59 00:00:57 0:18 min/m 149 7 36 00:32:13 10:23 min/m 313 9 71
Finished 323 Janice Caldwell 32 01:29:50 F40 19 Female Berks Tri 00:07:06 1:46 sec/100m 70 3 11 00:01:17 175 9 40 00:45:29 15.8 m/hr 342 16 78 00:01:17 0:24 min/m 267 18 72 00:34:49 11:14 min/m 359 22 89
Finished 324 Martha Shaw 447 01:29:53 F0 17 Female Hart Road Runners 00:09:39 2:24 sec/100m 296 21 67 00:01:28 219 13 59 00:44:37 16.1 m/hr 321 18 71 00:01:15 0:24 min/m 259 17 69 00:33:28 10:48 min/m 340 23 80
Finished 325 Isabelle Warner 430 01:30:09 Team 1 Unknown CATS 00:13:30 3:22 sec/100m 398 2 2 00:01:17 176 2 2 00:41:29 17.4 m/hr 250 1 1 00:01:05 0:21 min/m 200 2 2 00:32:46 10:34 min/m 327 1 1
Finished 326 Rich Bowers 276 01:30:10 M35 41 Male   00:08:39 2:09 sec/100m 221 28 174 00:02:36 352 35 251 00:44:27 16.2 m/hr 316 41 249 00:01:42 0:33 min/m 353 39 256 00:33:02 10:39 min/m 335 41 256
Finished 327 Emily Churchill 287 01:30:11 F0 18 Female   00:09:54 2:28 sec/100m 317 24 75 00:02:27 342 27 96 00:44:22 16.2 m/hr 315 15 66 00:01:39 0:32 min/m 344 30 93 00:31:47 10:15 min/m 307 21 69
Finished 328 Andrew Cole 164 01:30:13 M50 29 Male   00:08:50 2:12 sec/100m 242 23 184 00:01:24 205 16 149 00:44:48 16.1 m/hr 327 29 252 00:01:38 0:31 min/m 341 27 248 00:33:31 10:48 min/m 341 30 260
Finished 329 Sue Allen 199 01:30:27 M0 1 Female Chichester Tri 00:08:38 2:09 sec/100m 217 1 46 00:01:21 197 1 51 00:44:20 16.2 m/hr 311 1 63 00:01:42 0:32 min/m 349 1 94 00:34:25 11:06 min/m 353 1 84
Finished 330 Laura Scorse 179 01:30:37 F0 19 Female   00:08:38 2:09 sec/100m 220 15 47 00:01:20 186 12 46 00:44:43 16.1 m/hr 324 19 73 00:01:17 0:25 min/m 270 20 73 00:34:38 11:10 min/m 358 25 88
Finished 331 Scott Norris 382 01:30:58 M40 51 Male   00:11:37 2:54 sec/100m 377 55 275 00:01:29 223 30 162 00:39:31 18.2 m/hr 187 35 163 00:01:21 0:26 min/m 280 43 203 00:36:59 11:55 min/m 380 57 283
Finished 332 David Head 237 01:31:00 M50 30 Male   00:08:55 2:13 sec/100m 248 25 190 00:01:49 277 26 198 00:46:06 15.6 m/hr 348 30 266 00:01:34 0:30 min/m 334 26 242 00:32:59 10:38 min/m 332 28 255
Finished 333 Harriet Shergold 216 01:31:15 F0 20 Female   00:09:43 2:25 sec/100m 305 22 70 00:01:32 232 16 63 00:47:11 15.3 m/hr 365 23 87 00:01:28 0:28 min/m 312 24 82 00:31:19 10:06 min/m 297 18 64
Finished 334 Lauren Jones 363 01:31:17 F0 21 Female   00:09:24 2:21 sec/100m 282 19 63 00:02:07 312 23 87 00:50:17 14.3 m/hr 386 27 98 00:01:16 0:24 min/m 263 19 71 00:28:12 9:05 min/m 211 11 39
Finished 335 Natasha Skidmore 289 01:31:27 F0 22 Female Tri 20 00:09:33 2:23 sec/100m 291 20 66 00:02:19 335 25 94 00:45:52 15.7 m/hr 345 21 80 00:02:10 0:42 min/m 393 33 107 00:31:36 10:11 min/m 302 19 67
Finished 336 Sophie Gasson 148 01:31:36 F45 9 Female Farnham Tri 00:08:42 2:10 sec/100m 229 6 51 00:01:56 297 8 84 00:44:22 16.2 m/hr 314 8 65 00:01:15 0:24 min/m 256 7 68 00:35:20 11:23 min/m 363 10 90
Finished 337 Jennifer Wheatley 326 01:31:37 F40 20 Female Farnham Tri 00:10:41 2:40 sec/100m 346 17 88 00:01:54 294 19 83 00:48:49 14.7 m/hr 381 23 96 00:01:10 0:22 min/m 227 15 57 00:29:26 9:29 min/m 256 14 51
Finished 338 Johnathan Bingham 202 01:31:38 M40 52 Male   00:09:33 2:23 sec/100m 292 46 226 00:02:36 350 51 250 00:42:52 16.8 m/hr 284 47 232 00:02:05 0:40 min/m 388 57 280 00:34:54 11:15 min/m 361 55 271
Finished 339 John Guest 404 01:31:40 M0 60 Male   00:10:50 2:42 sec/100m 352 66 262 00:03:48 401 68 290 00:43:43 16.5 m/hr 298 51 239 00:01:56 0:37 min/m 380 67 275 00:31:21 10:06 min/m 298 61 234
Finished 340 Chris Armes 91 01:31:48 M40 53 Male   00:08:08 2:02 sec/100m 165 26 132 00:02:44 360 52 258 00:40:51 17.6 m/hr 233 44 200 00:01:42 0:33 min/m 355 53 257 00:38:25 12:23 min/m 392 58 289
Finished 341 Melissa Segalov 399 01:31:53 F45 10 Female   00:11:10 2:47 sec/100m 368 11 97 00:02:37 355 11 100 00:48:41 14.8 m/hr 380 12 95 00:00:55 0:17 min/m 131 3 32 00:28:28 9:11 min/m 227 4 41
Finished 342 Karl Foster 446 01:31:55 M0 61 Male   00:14:17 3:34 sec/100m 402 68 291 00:02:17 332 56 238 00:45:13 15.9 m/hr 337 57 262 00:01:44 0:33 min/m 365 64 263 00:28:22 9:09 min/m 220 48 180
Finished 343 Fleur Greetham 224 01:31:59 F35 13 Female   00:09:42 2:25 sec/100m 303 11 69 00:01:46 265 12 73 00:44:43 16.1 m/hr 323 14 72 00:01:13 0:23 min/m 244 10 62 00:34:32 11:08 min/m 355 13 86
Finished 344 James Devereux 333 01:32:02 M40 54 Male   00:08:14 2:03 sec/100m 176 27 140 00:02:53 369 54 266 00:43:32 16.5 m/hr 294 48 237 00:01:50 0:35 min/m 373 56 270 00:35:30 11:27 min/m 365 56 273
Finished 345 Sharon Fox 426 01:32:08 F40 21 Female Berks Tri 00:11:50 2:57 sec/100m 381 23 103 00:01:47 267 17 74 00:43:22 16.6 m/hr 289 13 55 00:00:54 0:17 min/m 122 6 28 00:34:13 11:02 min/m 351 21 83
Finished 346 Simon Fagan 411 01:32:19 M0 62 Male   00:09:42 2:25 sec/100m 301 58 233 00:02:16 328 55 236 00:44:48 16.1 m/hr 328 55 253 00:01:39 0:32 min/m 343 62 249 00:33:52 10:55 min/m 347 65 265
Finished 347 Sarah Catherine Brett 448 01:32:33 F40 22 Female   00:11:22 2:50 sec/100m 376 21 101 00:01:56 298 20 85 00:46:16 15.6 m/hr 351 18 82 00:01:30 0:29 min/m 323 20 86 00:31:36 10:11 min/m 301 16 66
Finished 348 David Dixon 111 01:32:41 M45 53 Male   00:07:58 1:59 sec/100m 144 21 113 00:02:54 371 56 268 00:48:12 14.9 m/hr 375 57 284 00:00:50 0:16 min/m 95 9 77 00:32:51 10:35 min/m 331 51 254
Finished 349 Robert Anthony 270 01:33:07 M0 63 Male   00:09:23 2:20 sec/100m 279 54 217 00:01:50 280 47 200 00:49:36 14.5 m/hr 383 66 286 00:00:38 0:12 min/m 26 8 18 00:31:39 10:12 min/m 303 62 236
Finished 350 Jenna Ellis 325 01:33:14 F50 11 Female Jo`s Tri 00:11:14 2:48 sec/100m 371 12 98 00:01:10 153 6 35 00:47:03 15.3 m/hr 362 12 85 00:00:46 0:14 min/m 67 4 17 00:33:00 10:38 min/m 333 10 77
Finished 351 Ray Allen 334 01:33:23 M65 3 Male CHICESTER TRI 00:12:12 3:03 sec/100m 388 2 281 00:01:53 288 3 206 00:44:02 16.3 m/hr 306 4 245 00:01:29 0:28 min/m 317 3 232 00:33:46 10:53 min/m 345 3 264
Finished 352 John Greaves 203 01:33:24 M50 31 Male   00:08:47 2:11 sec/100m 237 20 181 00:02:49 362 33 260 00:47:12 15.3 m/hr 366 33 278 00:00:57 0:18 min/m 142 13 108 00:33:37 10:50 min/m 343 31 262
Finished 353 Naomi Oxlade 212 01:33:44 F50 12 Female   00:10:22 2:35 sec/100m 338 10 83 00:01:13 162 7 38 00:43:13 16.7 m/hr 287 9 53 00:01:14 0:24 min/m 254 12 66 00:37:56 12:14 min/m 388 14 100
Finished 354 Maggie Rolfe 246 01:33:53 F60 2 Female Jo`s Tri 00:09:45 2:26 sec/100m 307 2 71 00:01:07 143 1 31 00:01:12 596 m/hr 1 1 1 00:47:54 15:27 min/m 408 3 111 00:33:54 10:56 min/m 348 2 82
Finished 355 Michael Dillon 401 01:34:00 M40 55 Male Farnham Tri 00:09:28 2:22 sec/100m 285 43 221 00:01:49 275 37 197 00:46:55 15.3 m/hr 360 57 276 00:01:13 0:23 min/m 245 37 181 00:34:50 11:14 min/m 360 54 270
Finished 356 Steve Oxby 364 01:34:14 M45 54 Male   00:10:21 2:35 sec/100m 336 53 254 00:02:27 341 53 244 00:43:23 16.6 m/hr 290 52 234 00:01:53 0:36 min/m 375 54 272 00:36:34 11:47 min/m 377 57 280
Finished 357 Kirk Goble 387 01:34:16 M40 56 Male CATS 00:11:13 2:48 sec/100m 370 54 272 00:03:13 384 57 279 00:45:56 15.7 m/hr 346 55 265 00:00:49 0:16 min/m 93 11 75 00:33:03 10:39 min/m 336 50 257
Finished 358 Will Saunders 308 01:34:19 M45 55 Male   00:09:24 2:21 sec/100m 284 47 220 00:02:23 338 52 241 00:44:57 16.0 m/hr 330 54 255 00:02:02 0:39 min/m 385 57 278 00:35:31 11:27 min/m 366 54 274
Finished 359 Jayne Mitchell 256 01:34:25 F45 11 Female   00:10:13 2:33 sec/100m 331 8 82 00:02:16 329 9 91 00:45:21 15.9 m/hr 340 10 76 00:00:50 0:16 min/m 97 1 19 00:35:43 11:31 min/m 369 11 94
Finished 360 Dimple Patel 388 01:34:42 F0 23 Female   00:09:58 2:29 sec/100m 322 26 78 00:01:44 258 19 71 00:53:25 13.5 m/hr 396 31 103 00:01:30 0:29 min/m 319 26 84 00:28:04 9:03 min/m 203 9 37
Finished 361 Garry Hodgkinson 386 01:35:19 M40 57 Male   00:11:42 2:55 sec/100m 379 56 277 00:02:30 344 50 246 00:47:23 15.2 m/hr 367 58 279 00:00:53 0:17 min/m 113 12 90 00:32:50 10:35 min/m 330 49 253
Finished 362 Paul Ambler 330 01:35:28 M0 64 Male   00:09:45 2:26 sec/100m 309 60 237 00:02:54 370 60 267 00:49:04 14.7 m/hr 382 65 285 00:00:59 0:19 min/m 158 36 117 00:32:50 10:35 min/m 329 64 252
Finished 363 Paul Shergold 215 01:35:37 M50 32 Male SOMERSET TRI 00:08:18 2:04 sec/100m 189 12 150 00:02:35 349 30 249 00:47:10 15.3 m/hr 364 32 277 00:01:28 0:28 min/m 313 25 229 00:36:05 11:38 min/m 371 33 275
Finished 364 Justin Watkins 367 01:35:46 M40 58 Male   00:12:00 3:00 sec/100m 384 57 279 00:02:50 364 53 262 00:46:41 15.4 m/hr 356 56 273 00:00:46 0:15 min/m 73 7 56 00:33:34 10:49 min/m 342 51 261
Finished 365 Natalie Jones 223 01:36:02 F0 24 Female TVT 00:07:55 1:58 sec/100m 136 9 29 00:01:29 225 14 60 00:47:24 15.2 m/hr 368 24 88 00:01:33 0:30 min/m 333 27 90 00:37:40 12:09 min/m 387 29 99
Finished 366 Mark Edgson 285 01:36:07 M45 56 Male Tri 20 00:09:04 2:16 sec/100m 263 45 204 00:01:53 289 45 207 00:47:37 15.1 m/hr 369 55 280 00:01:23 0:26 min/m 289 40 211 00:36:08 11:39 min/m 373 56 277
Finished 367 Mike Blasszkowicz 454 01:36:33 M35 42 Male                                                  
Finished 368 Lauren Cummings 253 01:36:37 F0 25 Female Portsmouth Tri 00:08:17 2:04 sec/100m 188 13 39 00:01:49 278 21 78 00:46:44 15.4 m/hr 358 22 83 00:01:14 0:24 min/m 252 15 65 00:38:38 12:27 min/m 394 30 103
Finished 369 Sue Scarlett 332 01:36:50 F0 26 Female   00:10:32 2:38 sec/100m 343 29 86 00:01:41 253 18 70 00:45:42 15.8 m/hr 344 20 79 00:01:15 0:24 min/m 260 18 70 00:37:38 12:08 min/m 386 28 98
Finished 370 Rosalind Hook 231 01:37:13 F35 14 Female   00:10:11 2:32 sec/100m 327 15 80 00:01:51 284 14 80 00:48:32 14.8 m/hr 378 15 93 00:01:08 0:22 min/m 218 9 54 00:35:38 11:29 min/m 367 14 92
Finished 371 Anna Ford 128 01:37:19 F0 27 Female   00:08:03 2:00 sec/100m 158 11 33 00:02:23 337 26 95 00:49:57 14.4 m/hr 384 26 97 00:00:33 0:10 min/m 10 3 3 00:36:21 11:43 min/m 374 26 96
Finished 372 Daniel Devereux 298 01:37:49 M0 65 Male Fleet Tri 00:08:34 2:08 sec/100m 215 49 171 00:03:00 376 63 272 00:47:50 15.1 m/hr 371 64 281 00:01:29 0:28 min/m 318 60 233 00:36:54 11:54 min/m 379 66 282
Finished 373 Wendy Wates 348 01:37:52 F35 15 Female   00:09:52 2:28 sec/100m 316 13 74 00:01:14 165 6 39 00:44:22 16.2 m/hr 313 12 64 00:01:31 0:29 min/m 325 14 88 00:41:02 13:14 min/m 400 15 108
Finished 374 Mark Jones 405 01:37:53 M0 66 Male Tri20 00:09:35 2:23 sec/100m 294 56 228 00:02:00 305 51 218 00:46:27 15.5 m/hr 354 61 271 00:00:57 0:18 min/m 145 35 110 00:38:52 12:32 min/m 397 67 290
Finished 375 Nick Bailey 380 01:37:56 M55 17 Male Portsmouth Tri 00:12:18 3:04 sec/100m 390 17 283 00:02:26 339 17 242 00:44:49 16.1 m/hr 329 16 254 00:01:22 0:26 min/m 286 13 208 00:37:05 11:57 min/m 382 18 284
Finished 376 Stuart Eley 400 01:38:10 M0 67 Male   00:09:12 2:18 sec/100m 268 51 208 00:02:55 373 61 269 00:54:23 13.2 m/hr 397 68 292 00:01:13 0:23 min/m 240 51 178 00:30:47 9:55 min/m 285 58 225
Finished 377 Gemma Hedges 403 01:38:11 F0 28 Female   00:11:03 2:45 sec/100m 363 32 95 00:03:10 382 31 103 00:48:22 14.9 m/hr 377 25 92 00:01:43 0:33 min/m 356 31 97 00:33:52 10:55 min/m 346 24 81
Finished 378 Vicky Hall 460 01:38:22 F0 29 Female   00:09:08 2:17 sec/100m 264 18 60 00:01:32 230 15 62 00:53:04 13.6 m/hr 395 30 102 00:01:35 0:30 min/m 336 28 91 00:33:02 10:39 min/m 334 22 78
Finished 379 Karen Harvey 378 01:38:36 F40 23 Female   00:11:48 2:57 sec/100m 380 22 102 00:01:19 184 11 45 00:48:21 14.9 m/hr 376 22 91 00:01:03 0:20 min/m 185 13 47 00:36:03 11:38 min/m 370 23 95
Finished 380 Mark Devereux 297 01:39:07 M50 33 Male Fleet Tri 00:10:56 2:44 sec/100m 357 32 266 00:03:09 381 34 277 00:46:17 15.6 m/hr 352 31 269 00:01:55 0:37 min/m 377 32 273 00:36:49 11:52 min/m 378 35 281
Finished 381 David Barker 327 01:39:57 M65 4 Male   00:13:32 3:23 sec/100m 399 3 288 00:03:18 387 4 282 00:43:49 16.4 m/hr 301 3 241 00:01:43 0:33 min/m 360 4 259 00:37:58 12:15 min/m 389 4 287
Finished 382 Katie Sundle 62 01:40:09 F0 30 Female FLEEET TRI 00:07:47 1:56 sec/100m 127 8 27 00:02:36 351 30 99 00:51:13 14.1 m/hr 390 29 101 00:01:29 0:28 min/m 316 25 83 00:37:03 11:57 min/m 381 27 97
Finished 383 Caroline Shaw 445 01:40:20 F50 13 Female Farnham Tri 00:13:03 3:15 sec/100m 394 14 108 00:02:18 334 14 93 00:48:37 14.8 m/hr 379 13 94 00:01:42 0:32 min/m 350 14 95 00:34:38 11:10 min/m 357 11 87
Finished 384 John Heather 77 01:40:47 M45 57 Male   00:08:00 2:00 sec/100m 152 23 120 00:02:41 356 54 254 00:52:31 13.7 m/hr 393 58 291 00:01:41 0:32 min/m 348 47 253 00:36:05 11:38 min/m 372 55 276
Finished 385 John Timmins 264 01:40:50 M55 18 Male Farnham Tri 00:12:22 3:05 sec/100m 391 18 284 00:05:38 406 20 294 00:45:00 16.0 m/hr 333 17 258 00:03:17 1:03 min/m 407 20 295 00:35:10 11:20 min/m 362 17 272
Finished 386 Brian Haynes 393 01:41:03 M60 6 Male MARLOW STRIDDERS 00:14:22 3:35 sec/100m 403 9 292 00:02:50 363 6 261 00:44:57 16.0 m/hr 331 5 256 00:02:31 0:48 min/m 403 9 292 00:36:22 11:43 min/m 375 7 278
Finished 387 Allan Manning 302 01:41:23 M60 7 Male   00:09:49 2:27 sec/100m 313 3 241 00:03:42 398 9 288 00:55:55 12.9 m/hr 401 9 294 00:01:21 0:26 min/m 283 3 205 00:30:33 9:51 min/m 282 5 223
Finished 388 Sheila Standen 379 01:41:45 F50 14 Female   00:12:10 3:02 sec/100m 386 13 105 00:01:53 290 13 81 00:50:53 14.1 m/hr 387 14 99 00:01:31 0:29 min/m 324 13 87 00:35:40 11:30 min/m 368 13 93
Finished 389 Stuart Keeler 361 01:42:57 M35 43 Male WEST END WARRIORS 00:13:10 3:17 sec/100m 396 41 286 00:05:13 405 42 293 00:41:00 17.6 m/hr 237 35 202 00:02:20 0:45 min/m 397 42 287 00:41:50 13:29 min/m 401 42 291
Finished 390 Howard Smith 396 01:42:59 M50 34 Male Farnham Tri 00:10:37 2:39 sec/100m 345 31 258 00:02:11 318 29 227 00:50:55 14.1 m/hr 388 34 288 00:01:24 0:27 min/m 299 21 219 00:38:19 12:21 min/m 390 36 288
Finished 391 Karen Copping 324 01:43:12 Team 2 Unknown CATS 00:11:06 2:46 sec/100m 364 1 1 00:00:40 50 1 1 00:52:55 13.6 m/hr 394 2 2 00:01:01 0:19 min/m 169 1 1 00:37:28 12:05 min/m 383 2 2
Finished 392 John Nicholls 368 01:43:43 M50 35 Male   00:11:01 2:45 sec/100m 360 33 267 00:02:37 354 31 253 00:52:19 13.8 m/hr 392 35 290 00:01:12 0:23 min/m 238 18 177 00:36:33 11:47 min/m 376 34 279
Finished 393 Fred Anthony 356 01:43:59 M60 8 Male   00:11:52 2:58 sec/100m 382 7 278 00:01:37 240 3 172 00:51:32 14.0 m/hr 391 8 289 00:01:27 0:28 min/m 308 4 225 00:37:29 12:05 min/m 385 8 286
Finished 394 Sarah Griffiths 394 01:44:59 F45 12 Female   00:13:07 3:16 sec/100m 395 12 109 00:03:39 396 12 107 00:47:55 15.0 m/hr 372 11 90 00:01:43 0:33 min/m 358 10 98 00:38:33 12:26 min/m 393 12 102
Finished 395 Frank Green 286 01:45:09 M55 19 Male   00:10:51 2:42 sec/100m 353 14 263 00:02:52 366 18 264 00:55:15 13.0 m/hr 400 20 293 00:01:33 0:30 min/m 331 15 240 00:34:37 11:10 min/m 356 16 269
Finished 396 Ian Redding 402 01:48:15 M45 58 Male CATS 00:12:56 3:14 sec/100m 393 58 285 00:01:51 285 43 203 00:48:03 15.0 m/hr 374 56 283 00:01:19 0:25 min/m 275 37 199 00:44:05 14:13 min/m 403 58 292
Finished 397 Julia Waddington 372 01:49:38 F40 24 Female   00:10:55 2:43 sec/100m 355 19 91 00:03:21 389 24 104 00:54:55 13.1 m/hr 399 24 105 00:02:32 0:49 min/m 404 24 110 00:38:22 12:22 min/m 391 24 101
Finished 398 Marie Smith 362 01:49:40 F0 31 Female WEST END WARRIORS 00:10:46 2:41 sec/100m 348 30 90 00:03:48 400 33 109 00:50:55 14.1 m/hr 389 28 100 00:01:26 0:28 min/m 306 23 80 00:42:52 13:49 min/m 402 32 109
Finished 399 David Pinkney 149 01:49:46 M60 9 Male Farnham Tri 00:08:30 2:07 sec/100m 209 2 166 00:02:32 346 5 248 00:46:08 15.6 m/hr 349 7 267 00:02:16 0:43 min/m 396 7 286 00:50:18 16:13 min/m 408 9 295
Finished 400 Dean Mortara 360 01:51:06 M0 68 Male   00:10:09 2:32 sec/100m 325 62 246 00:03:14 385 66 280 00:50:14 14.3 m/hr 385 67 287 00:03:17 1:03 min/m 406 68 294 00:44:10 14:15 min/m 404 68 293
Finished 401 Steven Eley 416 01:54:37 M55 20 Male   00:16:11 4:02 sec/100m 405 20 293 00:04:28 403 19 292 00:47:58 15.0 m/hr 373 19 282 00:01:16 0:24 min/m 265 11 192 00:44:42 14:25 min/m 405 20 294
Finished 402 Kim Williamson 421 01:55:24 F50 15 Female   00:15:13 3:48 sec/100m 404 15 110 00:03:36 395 15 106 00:56:01 12.9 m/hr 402 15 106 00:01:44 0:33 min/m 362 15 100 00:38:56 12:33 min/m 398 15 106
Finished 403 Linda Dowell 381 01:55:39 F55 6 Female Village RC 00:12:35 3:08 sec/100m 392 7 107 00:09:23 407 7 111 00:57:19 12.6 m/hr 403 6 107 00:01:57 0:38 min/m 382 7 104 00:34:27 11:07 min/m 354 6 85
Finished 404 Martin Sharrod 427 01:56:19 M50 36 Male   00:17:47 4:26 sec/100m 407 36 294 00:03:46 399 35 289 00:59:58 12.0 m/hr 404 36 295 00:02:22 0:45 min/m 400 35 289 00:32:25 10:27 min/m 319 26 248
Finished 405 Rachel Scott 313 01:57:13 F0 32 Female   00:10:57 2:44 sec/100m 358 31 92 00:02:33 347 28 97 01:04:13 11.2 m/hr 408 33 111 00:00:44 0:14 min/m 51 7 12 00:38:48 12:31 min/m 396 31 105
Finished 406 Chardine Fagan 374 01:59:05 F55 7 Female   00:11:53 2:58 sec/100m 383 6 104 00:03:42 397 6 108 01:02:26 11.5 m/hr 405 7 108 00:01:55 0:37 min/m 378 6 103 00:39:07 12:37 min/m 399 7 107
Finished 407 Tracy West 398 02:00:40 F35 16 Female   00:11:18 2:49 sec/100m 373 16 99 00:02:55 372 16 102 00:54:38 13.2 m/hr 398 16 104 00:01:59 0:38 min/m 383 16 105 00:50:10 16:11 min/m 407 16 111
Finished 408 Jenny Hughes 345 02:02:21 F0 33 Female   00:11:09 2:47 sec/100m 367 33 96 00:02:04 309 22 86 01:02:41 11.5 m/hr 406 32 109 00:01:06 0:21 min/m 202 10 51 00:46:04 14:51 min/m 406 33 110
Finished 409 Lenora Blair 417 02:05:26 F60 3 Female Hart RR 00:17:21 4:20 sec/100m 406 3 111 00:04:40 404 3 110 01:03:00 11.4 m/hr 407 3 110 00:01:45 0:34 min/m 366 2 101 00:38:38 12:27 min/m 395 3 104
Query   Nicholas Grogut 359   M40   Male Hart R.R